<?xml version='1.0' encoding='UTF-8'?><gpx version="1.1" creator="JPX - https://github.com/jenetics/jpx" xmlns="http://www.topografix.com/GPX/1/1"><trk><trkseg><trkpt lat="45.4804542" lon="9.320875"><ele>114.85714285714283</ele><time>2026-04-19T12:15:04.007Z</time></trkpt><trkpt lat="45.4803695" lon="9.3208711"><ele>114.71428571428571</ele><time>2026-04-19T12:15:07.008Z</time></trkpt><trkpt lat="45.4803047" lon="9.3208599"><ele>114.57142857142856</ele><time>2026-04-19T12:15:09.008Z</time></trkpt><trkpt lat="45.4802309" lon="9.3208552"><ele>114.42857142857142</ele><time>2026-04-19T12:15:11.007Z</time></trkpt><trkpt lat="45.4801553" lon="9.3208458"><ele>114.28571428571428</ele><time>2026-04-19T12:15:13.008Z</time></trkpt><trkpt lat="45.4800797" lon="9.3208378"><ele>114.14285714285714</ele><time>2026-04-19T12:15:15.008Z</time></trkpt><trkpt lat="45.4800078" lon="9.3208271"><ele>114.0</ele><time>2026-04-19T12:15:17.008Z</time></trkpt><trkpt lat="45.4799403" lon="9.3208037"><ele>114.0</ele><time>2026-04-19T12:15:19.007Z</time></trkpt><trkpt lat="45.479877" lon="9.3207414"><ele>113.99999999999999</ele><time>2026-04-19T12:15:22.008Z</time></trkpt><trkpt lat="45.4798865" lon="9.3206475"><ele>114.0</ele><time>2026-04-19T12:15:24.008Z</time></trkpt><trkpt lat="45.479894" lon="9.3205511"><ele>114.0</ele><time>2026-04-19T12:15:26.007Z</time></trkpt><trkpt lat="45.4799034" lon="9.3204499"><ele>113.99999999999999</ele><time>2026-04-19T12:15:28.007Z</time></trkpt><trkpt lat="45.4799099" lon="9.3203432"><ele>114.0</ele><time>2026-04-19T12:15:30.008Z</time></trkpt><trkpt lat="45.4799171" lon="9.3202374"><ele>114.0</ele><time>2026-04-19T12:15:32.007Z</time></trkpt><trkpt lat="45.4799242" lon="9.3201345"><ele>114.0</ele><time>2026-04-19T12:15:34.007Z</time></trkpt><trkpt lat="45.4799163" lon="9.3200285"><ele>114.0</ele><time>2026-04-19T12:15:36.008Z</time></trkpt><trkpt lat="45.4799159" lon="9.3199216"><ele>114.0</ele><time>2026-04-19T12:15:38.007Z</time></trkpt><trkpt lat="45.4799199" lon="9.3198131"><ele>114.0</ele><time>2026-04-19T12:15:40.008Z</time></trkpt><trkpt lat="45.4799306" lon="9.3197114"><ele>114.0</ele><time>2026-04-19T12:15:42.007Z</time></trkpt><trkpt lat="45.479944" lon="9.3196019"><ele>114.0</ele><time>2026-04-19T12:15:44.007Z</time></trkpt><trkpt lat="45.479946" lon="9.3194894"><ele>114.0</ele><time>2026-04-19T12:15:46.008Z</time></trkpt><trkpt lat="45.4799517" lon="9.3193953"><ele>114.0</ele><time>2026-04-19T12:15:48.008Z</time></trkpt><trkpt lat="45.4799721" lon="9.319293"><ele>114.0</ele><time>2026-04-19T12:15:51.007Z</time></trkpt><trkpt lat="45.4799517" lon="9.3191784"><ele>114.0</ele><time>2026-04-19T12:15:54.007Z</time></trkpt><trkpt lat="45.4798872" lon="9.3191597"><ele>114.0</ele><time>2026-04-19T12:15:56.007Z</time></trkpt><trkpt lat="45.4798006" lon="9.3191624"><ele>114.0</ele><time>2026-04-19T12:15:59.008Z</time></trkpt><trkpt lat="45.4797262" lon="9.3191536"><ele>114.0</ele><time>2026-04-19T12:16:02.007Z</time></trkpt><trkpt lat="45.4796574" lon="9.3191505"><ele>113.99999999999999</ele><time>2026-04-19T12:16:05.008Z</time></trkpt><trkpt lat="45.4795752" lon="9.3191481"><ele>114.0</ele><time>2026-04-19T12:16:09.007Z</time></trkpt><trkpt lat="45.4794925" lon="9.3191451"><ele>114.0</ele><time>2026-04-19T12:16:13.007Z</time></trkpt><trkpt lat="45.4794088" lon="9.3191412"><ele>113.99999999999999</ele><time>2026-04-19T12:16:17.008Z</time></trkpt><trkpt lat="45.4793453" lon="9.3191278"><ele>114.0</ele><time>2026-04-19T12:16:20.007Z</time></trkpt><trkpt lat="45.4792802" lon="9.3191249"><ele>114.0</ele><time>2026-04-19T12:16:23.008Z</time></trkpt><trkpt lat="45.4791972" lon="9.3191263"><ele>114.0</ele><time>2026-04-19T12:16:27.007Z</time></trkpt><trkpt lat="45.4791135" lon="9.3191271"><ele>113.99999999999999</ele><time>2026-04-19T12:16:31.008Z</time></trkpt><trkpt lat="45.4790305" lon="9.3191345"><ele>114.0</ele><time>2026-04-19T12:16:35.007Z</time></trkpt><trkpt lat="45.4789665" lon="9.3191443"><ele>114.0</ele><time>2026-04-19T12:16:38.008Z</time></trkpt><trkpt lat="45.4788921" lon="9.319154"><ele>113.99999999999999</ele><time>2026-04-19T12:16:42.007Z</time></trkpt><trkpt lat="45.4788286" lon="9.3191718"><ele>114.0</ele><time>2026-04-19T12:16:45.007Z</time></trkpt><trkpt lat="45.4787532" lon="9.31919"><ele>114.0</ele><time>2026-04-19T12:16:48.007Z</time></trkpt><trkpt lat="45.4786736" lon="9.3192135"><ele>114.0</ele><time>2026-04-19T12:16:51.008Z</time></trkpt><trkpt lat="45.4785957" lon="9.3192329"><ele>114.0</ele><time>2026-04-19T12:16:53.007Z</time></trkpt><trkpt lat="45.4785025" lon="9.3192595"><ele>114.0</ele><time>2026-04-19T12:16:55.008Z</time></trkpt><trkpt lat="45.478414" lon="9.3192717"><ele>114.0</ele><time>2026-04-19T12:16:57.008Z</time></trkpt><trkpt lat="45.4783347" lon="9.3192174"><ele>114.0</ele><time>2026-04-19T12:16:59.008Z</time></trkpt><trkpt lat="45.4783064" lon="9.319109"><ele>114.0</ele><time>2026-04-19T12:17:01.007Z</time></trkpt><trkpt lat="45.4782676" lon="9.3190054"><ele>114.0</ele><time>2026-04-19T12:17:03.008Z</time></trkpt><trkpt lat="45.4782364" lon="9.3188882"><ele>114.0</ele><time>2026-04-19T12:17:05.008Z</time></trkpt><trkpt lat="45.4782189" lon="9.3187582"><ele>114.0</ele><time>2026-04-19T12:17:07.007Z</time></trkpt><trkpt lat="45.478213" lon="9.3186086"><ele>114.0</ele><time>2026-04-19T12:17:09.007Z</time></trkpt><trkpt lat="45.4782192" lon="9.3184517"><ele>114.0</ele><time>2026-04-19T12:17:11.007Z</time></trkpt><trkpt lat="45.4782223" lon="9.3182823"><ele>114.0</ele><time>2026-04-19T12:17:13.007Z</time></trkpt><trkpt lat="45.4782129" lon="9.3181109"><ele>113.99999999999999</ele><time>2026-04-19T12:17:15.008Z</time></trkpt><trkpt lat="45.4782084" lon="9.3180206"><ele>114.0</ele><time>2026-04-19T12:17:16.007Z</time></trkpt><trkpt lat="45.4782058" lon="9.3179295"><ele>114.0</ele><time>2026-04-19T12:17:17.008Z</time></trkpt><trkpt lat="45.4782013" lon="9.3178368"><ele>113.99999999999999</ele><time>2026-04-19T12:17:18.007Z</time></trkpt><trkpt lat="45.4781912" lon="9.3177456"><ele>114.0</ele><time>2026-04-19T12:17:19.007Z</time></trkpt><trkpt lat="45.4781746" lon="9.3176559"><ele>114.0</ele><time>2026-04-19T12:17:20.008Z</time></trkpt><trkpt lat="45.4781417" lon="9.3175759"><ele>113.80000000000001</ele><time>2026-04-19T12:17:21.007Z</time></trkpt><trkpt lat="45.4780947" lon="9.3174263"><ele>113.60000000000001</ele><time>2026-04-19T12:17:23.008Z</time></trkpt><trkpt lat="45.4780751" lon="9.3172761"><ele>113.4</ele><time>2026-04-19T12:17:25.008Z</time></trkpt><trkpt lat="45.4780746" lon="9.3171368"><ele>113.2</ele><time>2026-04-19T12:17:27.008Z</time></trkpt><trkpt lat="45.478076" lon="9.3169975"><ele>113.0</ele><time>2026-04-19T12:17:29.008Z</time></trkpt><trkpt lat="45.4780855" lon="9.3168675"><ele>113.0</ele><time>2026-04-19T12:17:31.007Z</time></trkpt><trkpt lat="45.4781043" lon="9.3167293"><ele>113.00000000000001</ele><time>2026-04-19T12:17:33.007Z</time></trkpt><trkpt lat="45.4781186" lon="9.3166021"><ele>113.00000000000001</ele><time>2026-04-19T12:17:35.008Z</time></trkpt><trkpt lat="45.4781367" lon="9.3164672"><ele>113.0</ele><time>2026-04-19T12:17:37.008Z</time></trkpt><trkpt lat="45.4781775" lon="9.3163508"><ele>113.0</ele><time>2026-04-19T12:17:39.008Z</time></trkpt><trkpt lat="45.4782009" lon="9.3162114"><ele>112.99999999999999</ele><time>2026-04-19T12:17:41.007Z</time></trkpt><trkpt lat="45.4782085" lon="9.3160784"><ele>113.0</ele><time>2026-04-19T12:17:43.008Z</time></trkpt><trkpt lat="45.478224" lon="9.3159459"><ele>113.0</ele><time>2026-04-19T12:17:45.007Z</time></trkpt><trkpt lat="45.4782267" lon="9.3158237"><ele>113.0</ele><time>2026-04-19T12:17:47.008Z</time></trkpt><trkpt lat="45.4782171" lon="9.315708"><ele>112.99999999999999</ele><time>2026-04-19T12:17:49.008Z</time></trkpt><trkpt lat="45.4782051" lon="9.3155887"><ele>113.0</ele><time>2026-04-19T12:17:51.008Z</time></trkpt><trkpt lat="45.4781902" lon="9.3154705"><ele>113.0</ele><time>2026-04-19T12:17:53.008Z</time></trkpt><trkpt lat="45.4781813" lon="9.3153451"><ele>113.00000000000001</ele><time>2026-04-19T12:17:55.007Z</time></trkpt><trkpt lat="45.4781725" lon="9.315217"><ele>113.00000000000001</ele><time>2026-04-19T12:17:57.008Z</time></trkpt><trkpt lat="45.4781686" lon="9.3150818"><ele>113.0</ele><time>2026-04-19T12:17:59.008Z</time></trkpt><trkpt lat="45.478159" lon="9.3149459"><ele>113.0</ele><time>2026-04-19T12:18:01.008Z</time></trkpt><trkpt lat="45.4781519" lon="9.3148135"><ele>112.80000000000001</ele><time>2026-04-19T12:18:03.007Z</time></trkpt><trkpt lat="45.4781198" lon="9.3146943"><ele>112.60000000000001</ele><time>2026-04-19T12:18:05.007Z</time></trkpt><trkpt lat="45.4780796" lon="9.3145771"><ele>112.39999999999999</ele><time>2026-04-19T12:18:07.007Z</time></trkpt><trkpt lat="45.4780248" lon="9.314472"><ele>112.19999999999999</ele><time>2026-04-19T12:18:09.007Z</time></trkpt><trkpt lat="45.4779822" lon="9.3143538"><ele>112.0</ele><time>2026-04-19T12:18:11.008Z</time></trkpt><trkpt lat="45.4779463" lon="9.3142392"><ele>112.0</ele><time>2026-04-19T12:18:13.007Z</time></trkpt><trkpt lat="45.4779225" lon="9.3141268"><ele>111.99999999999999</ele><time>2026-04-19T12:18:15.007Z</time></trkpt><trkpt lat="45.4778999" lon="9.3139989"><ele>111.99999999999999</ele><time>2026-04-19T12:18:17.008Z</time></trkpt><trkpt lat="45.4778967" lon="9.3138642"><ele>112.0</ele><time>2026-04-19T12:18:19.008Z</time></trkpt><trkpt lat="45.4779155" lon="9.3137317"><ele>112.0</ele><time>2026-04-19T12:18:21.008Z</time></trkpt><trkpt lat="45.4779224" lon="9.3135782"><ele>112.0</ele><time>2026-04-19T12:18:23.008Z</time></trkpt><trkpt lat="45.4779204" lon="9.3134369"><ele>111.99999999999999</ele><time>2026-04-19T12:18:25.007Z</time></trkpt><trkpt lat="45.4779066" lon="9.3132913"><ele>111.99999999999999</ele><time>2026-04-19T12:18:27.007Z</time></trkpt><trkpt lat="45.4778603" lon="9.313173"><ele>112.0</ele><time>2026-04-19T12:18:29.008Z</time></trkpt><trkpt lat="45.4777807" lon="9.3130772"><ele>112.0</ele><time>2026-04-19T12:18:31.008Z</time></trkpt><trkpt lat="45.4776953" lon="9.3129983"><ele>112.0</ele><time>2026-04-19T12:18:33.007Z</time></trkpt><trkpt lat="45.4776073" lon="9.3129159"><ele>111.99999999999999</ele><time>2026-04-19T12:18:35.008Z</time></trkpt><trkpt lat="45.4775562" lon="9.3127953"><ele>111.99999999999999</ele><time>2026-04-19T12:18:37.008Z</time></trkpt><trkpt lat="45.477519" lon="9.3126541"><ele>112.0</ele><time>2026-04-19T12:18:39.007Z</time></trkpt><trkpt lat="45.4774766" lon="9.3125228"><ele>112.0</ele><time>2026-04-19T12:18:41.008Z</time></trkpt><trkpt lat="45.477428" lon="9.3123962"><ele>112.0</ele><time>2026-04-19T12:18:43.007Z</time></trkpt><trkpt lat="45.4774289" lon="9.3122609"><ele>111.99999999999999</ele><time>2026-04-19T12:18:45.008Z</time></trkpt><trkpt lat="45.4774995" lon="9.312186"><ele>111.99999999999999</ele><time>2026-04-19T12:18:47.007Z</time></trkpt><trkpt lat="45.4775889" lon="9.3121285"><ele>112.0</ele><time>2026-04-19T12:18:49.008Z</time></trkpt><trkpt lat="45.4776669" lon="9.3120576"><ele>112.0</ele><time>2026-04-19T12:18:51.008Z</time></trkpt><trkpt lat="45.4777427" lon="9.3119812"><ele>112.0</ele><time>2026-04-19T12:18:53.007Z</time></trkpt><trkpt lat="45.4777904" lon="9.3118894"><ele>111.99999999999999</ele><time>2026-04-19T12:18:55.007Z</time></trkpt><trkpt lat="45.4777364" lon="9.3117661"><ele>111.99999999999999</ele><time>2026-04-19T12:18:57.008Z</time></trkpt><trkpt lat="45.4777372" lon="9.3116418"><ele>112.0</ele><time>2026-04-19T12:18:59.008Z</time></trkpt><trkpt lat="45.4777302" lon="9.3115076"><ele>112.0</ele><time>2026-04-19T12:19:01.007Z</time></trkpt><trkpt lat="45.4777229" lon="9.3113754"><ele>112.0</ele><time>2026-04-19T12:19:03.007Z</time></trkpt><trkpt lat="45.4777296" lon="9.3112389"><ele>111.99999999999999</ele><time>2026-04-19T12:19:05.008Z</time></trkpt><trkpt lat="45.4777674" lon="9.3111134"><ele>111.99999999999999</ele><time>2026-04-19T12:19:07.008Z</time></trkpt><trkpt lat="45.4778142" lon="9.3109977"><ele>112.0</ele><time>2026-04-19T12:19:09.008Z</time></trkpt><trkpt lat="45.4778661" lon="9.3108867"><ele>112.0</ele><time>2026-04-19T12:19:11.007Z</time></trkpt><trkpt lat="45.4779074" lon="9.3107717"><ele>112.0</ele><time>2026-04-19T12:19:13.007Z</time></trkpt><trkpt lat="45.4779232" lon="9.3106482"><ele>111.99999999999999</ele><time>2026-04-19T12:19:15.007Z</time></trkpt><trkpt lat="45.4779294" lon="9.3105162"><ele>111.99999999999999</ele><time>2026-04-19T12:19:17.007Z</time></trkpt><trkpt lat="45.4779316" lon="9.3103875"><ele>112.0</ele><time>2026-04-19T12:19:19.008Z</time></trkpt><trkpt lat="45.4779292" lon="9.3102552"><ele>112.0</ele><time>2026-04-19T12:19:21.008Z</time></trkpt><trkpt lat="45.4779295" lon="9.3101152"><ele>112.0</ele><time>2026-04-19T12:19:23.007Z</time></trkpt><trkpt lat="45.4779271" lon="9.3099769"><ele>111.99999999999999</ele><time>2026-04-19T12:19:25.008Z</time></trkpt><trkpt lat="45.4779183" lon="9.309842"><ele>111.99999999999999</ele><time>2026-04-19T12:19:27.007Z</time></trkpt><trkpt lat="45.4779062" lon="9.309705"><ele>112.0</ele><time>2026-04-19T12:19:29.007Z</time></trkpt><trkpt lat="45.477901" lon="9.3095645"><ele>112.0</ele><time>2026-04-19T12:19:31.008Z</time></trkpt><trkpt lat="45.4778932" lon="9.3094212"><ele>113.19999999999999</ele><time>2026-04-19T12:19:33.008Z</time></trkpt><trkpt lat="45.4778857" lon="9.3092791"><ele>114.39999999999999</ele><time>2026-04-19T12:19:35.007Z</time></trkpt><trkpt lat="45.4778799" lon="9.309135"><ele>115.60000000000001</ele><time>2026-04-19T12:19:37.007Z</time></trkpt><trkpt lat="45.4778647" lon="9.3089937"><ele>116.80000000000001</ele><time>2026-04-19T12:19:39.008Z</time></trkpt><trkpt lat="45.4778507" lon="9.3088493"><ele>118.0</ele><time>2026-04-19T12:19:41.008Z</time></trkpt><trkpt lat="45.4778398" lon="9.3087043"><ele>118.0</ele><time>2026-04-19T12:19:43.007Z</time></trkpt><trkpt lat="45.4778301" lon="9.3085748"><ele>118.00000000000001</ele><time>2026-04-19T12:19:45.007Z</time></trkpt><trkpt lat="45.4778182" lon="9.3084376"><ele>118.00000000000001</ele><time>2026-04-19T12:19:47.008Z</time></trkpt><trkpt lat="45.477791" lon="9.3083095"><ele>118.0</ele><time>2026-04-19T12:19:49.007Z</time></trkpt><trkpt lat="45.4777775" lon="9.3081745"><ele>118.0</ele><time>2026-04-19T12:19:51.007Z</time></trkpt><trkpt lat="45.4777659" lon="9.3080308"><ele>117.60000000000001</ele><time>2026-04-19T12:19:53.007Z</time></trkpt><trkpt lat="45.4777539" lon="9.3078975"><ele>117.20000000000002</ele><time>2026-04-19T12:19:55.008Z</time></trkpt><trkpt lat="45.4777378" lon="9.3077619"><ele>116.8</ele><time>2026-04-19T12:19:57.008Z</time></trkpt><trkpt lat="45.4777309" lon="9.3076201"><ele>116.4</ele><time>2026-04-19T12:19:59.007Z</time></trkpt><trkpt lat="45.4777272" lon="9.3074834"><ele>116.0</ele><time>2026-04-19T12:20:01.008Z</time></trkpt><trkpt lat="45.4777141" lon="9.3073495"><ele>116.0</ele><time>2026-04-19T12:20:03.007Z</time></trkpt><trkpt lat="45.4776952" lon="9.3072111"><ele>116.0</ele><time>2026-04-19T12:20:05.008Z</time></trkpt><trkpt lat="45.4776674" lon="9.3070812"><ele>116.0</ele><time>2026-04-19T12:20:07.007Z</time></trkpt><trkpt lat="45.4776361" lon="9.3069535"><ele>116.0</ele><time>2026-04-19T12:20:09.007Z</time></trkpt><trkpt lat="45.4776122" lon="9.3068135"><ele>116.0</ele><time>2026-04-19T12:20:11.008Z</time></trkpt><trkpt lat="45.477587" lon="9.3066721"><ele>116.0</ele><time>2026-04-19T12:20:13.007Z</time></trkpt><trkpt lat="45.4775733" lon="9.3065261"><ele>116.0</ele><time>2026-04-19T12:20:15.007Z</time></trkpt><trkpt lat="45.4775526" lon="9.3063806"><ele>116.0</ele><time>2026-04-19T12:20:17.008Z</time></trkpt><trkpt lat="45.4775292" lon="9.3062484"><ele>116.0</ele><time>2026-04-19T12:20:19.008Z</time></trkpt><trkpt lat="45.4775078" lon="9.3061177"><ele>116.0</ele><time>2026-04-19T12:20:21.008Z</time></trkpt><trkpt lat="45.4774886" lon="9.3060011"><ele>115.8</ele><time>2026-04-19T12:20:23.008Z</time></trkpt><trkpt lat="45.4774647" lon="9.3058875"><ele>115.6</ele><time>2026-04-19T12:20:25.007Z</time></trkpt><trkpt lat="45.4774556" lon="9.3057627"><ele>115.4</ele><time>2026-04-19T12:20:27.008Z</time></trkpt><trkpt lat="45.4774364" lon="9.3056323"><ele>115.2</ele><time>2026-04-19T12:20:29.007Z</time></trkpt><trkpt lat="45.4774231" lon="9.3054995"><ele>115.0</ele><time>2026-04-19T12:20:31.007Z</time></trkpt><trkpt lat="45.4774126" lon="9.3053612"><ele>114.8</ele><time>2026-04-19T12:20:33.007Z</time></trkpt><trkpt lat="45.4774144" lon="9.3052298"><ele>114.6</ele><time>2026-04-19T12:20:35.008Z</time></trkpt><trkpt lat="45.4774079" lon="9.3050965"><ele>114.4</ele><time>2026-04-19T12:20:37.007Z</time></trkpt><trkpt lat="45.4773975" lon="9.3049628"><ele>114.2</ele><time>2026-04-19T12:20:39.008Z</time></trkpt><trkpt lat="45.4773835" lon="9.304823"><ele>114.0</ele><time>2026-04-19T12:20:41.007Z</time></trkpt><trkpt lat="45.4773698" lon="9.3046864"><ele>114.4</ele><time>2026-04-19T12:20:43.007Z</time></trkpt><trkpt lat="45.4773568" lon="9.3045499"><ele>114.80000000000001</ele><time>2026-04-19T12:20:45.007Z</time></trkpt><trkpt lat="45.4773115" lon="9.3044326"><ele>115.19999999999999</ele><time>2026-04-19T12:20:47.008Z</time></trkpt><trkpt lat="45.47725" lon="9.3043375"><ele>115.6</ele><time>2026-04-19T12:20:49.008Z</time></trkpt><trkpt lat="45.4771838" lon="9.3042463"><ele>116.0</ele><time>2026-04-19T12:20:51.007Z</time></trkpt><trkpt lat="45.4771047" lon="9.3041734"><ele>115.4</ele><time>2026-04-19T12:20:53.008Z</time></trkpt><trkpt lat="45.4770118" lon="9.3041232"><ele>114.8</ele><time>2026-04-19T12:20:55.007Z</time></trkpt><trkpt lat="45.4769143" lon="9.3041089"><ele>114.20000000000002</ele><time>2026-04-19T12:20:57.007Z</time></trkpt><trkpt lat="45.4768185" lon="9.30411"><ele>113.60000000000001</ele><time>2026-04-19T12:20:59.007Z</time></trkpt><trkpt lat="45.4767247" lon="9.3041183"><ele>113.0</ele><time>2026-04-19T12:21:01.007Z</time></trkpt><trkpt lat="45.4766297" lon="9.3041306"><ele>113.0</ele><time>2026-04-19T12:21:03.007Z</time></trkpt><trkpt lat="45.4765314" lon="9.3041426"><ele>113.00000000000001</ele><time>2026-04-19T12:21:05.008Z</time></trkpt><trkpt lat="45.4764249" lon="9.3041478"><ele>113.00000000000001</ele><time>2026-04-19T12:21:07.007Z</time></trkpt><trkpt lat="45.4763043" lon="9.3041532"><ele>113.0</ele><time>2026-04-19T12:21:09.007Z</time></trkpt><trkpt lat="45.4762408" lon="9.3041562"><ele>113.0</ele><time>2026-04-19T12:21:10.008Z</time></trkpt><trkpt lat="45.4761164" lon="9.3041583"><ele>112.75</ele><time>2026-04-19T12:21:12.007Z</time></trkpt><trkpt lat="45.4759992" lon="9.304161"><ele>112.5</ele><time>2026-04-19T12:21:14.008Z</time></trkpt><trkpt lat="45.4758784" lon="9.3041698"><ele>112.25</ele><time>2026-04-19T12:21:16.007Z</time></trkpt><trkpt lat="45.4757589" lon="9.3041685"><ele>112.0</ele><time>2026-04-19T12:21:18.008Z</time></trkpt><trkpt lat="45.475647" lon="9.3041657"><ele>112.0</ele><time>2026-04-19T12:21:20.008Z</time></trkpt><trkpt lat="45.4755387" lon="9.3041755"><ele>111.99999999999999</ele><time>2026-04-19T12:21:22.008Z</time></trkpt><trkpt lat="45.4754339" lon="9.3041787"><ele>111.99999999999999</ele><time>2026-04-19T12:21:24.008Z</time></trkpt><trkpt lat="45.4753267" lon="9.304153"><ele>112.0</ele><time>2026-04-19T12:21:26.007Z</time></trkpt><trkpt lat="45.4752161" lon="9.3041517"><ele>112.0</ele><time>2026-04-19T12:21:28.007Z</time></trkpt><trkpt lat="45.4751047" lon="9.3041468"><ele>112.16666666666667</ele><time>2026-04-19T12:21:30.008Z</time></trkpt><trkpt lat="45.4750037" lon="9.3041516"><ele>112.33333333333334</ele><time>2026-04-19T12:21:32.008Z</time></trkpt><trkpt lat="45.4749076" lon="9.3041652"><ele>112.5</ele><time>2026-04-19T12:21:34.007Z</time></trkpt><trkpt lat="45.4748315" lon="9.3041326"><ele>112.66666666666666</ele><time>2026-04-19T12:21:36.008Z</time></trkpt><trkpt lat="45.4748036" lon="9.3040363"><ele>112.83333333333333</ele><time>2026-04-19T12:21:38.007Z</time></trkpt><trkpt lat="45.4748065" lon="9.3039244"><ele>113.0</ele><time>2026-04-19T12:21:40.008Z</time></trkpt><trkpt lat="45.4748269" lon="9.3037984"><ele>113.0</ele><time>2026-04-19T12:21:42.007Z</time></trkpt><trkpt lat="45.4749" lon="9.3037388"><ele>113.00000000000001</ele><time>2026-04-19T12:21:44.007Z</time></trkpt><trkpt lat="45.4749938" lon="9.303763"><ele>113.00000000000001</ele><time>2026-04-19T12:21:46.007Z</time></trkpt><trkpt lat="45.475092" lon="9.3037803"><ele>113.0</ele><time>2026-04-19T12:21:48.007Z</time></trkpt><trkpt lat="45.4751893" lon="9.3037806"><ele>113.0</ele><time>2026-04-19T12:21:50.008Z</time></trkpt><trkpt lat="45.475288" lon="9.3037776"><ele>113.0</ele><time>2026-04-19T12:21:52.007Z</time></trkpt><trkpt lat="45.4753812" lon="9.3038131"><ele>113.00000000000001</ele><time>2026-04-19T12:21:54.007Z</time></trkpt><trkpt lat="45.4754709" lon="9.30381"><ele>113.00000000000001</ele><time>2026-04-19T12:21:56.007Z</time></trkpt><trkpt lat="45.4755652" lon="9.3038124"><ele>113.0</ele><time>2026-04-19T12:21:58.008Z</time></trkpt><trkpt lat="45.4756641" lon="9.303807"><ele>113.0</ele><time>2026-04-19T12:22:00.007Z</time></trkpt><trkpt lat="45.4757652" lon="9.3038095"><ele>112.60000000000001</ele><time>2026-04-19T12:22:02.007Z</time></trkpt><trkpt lat="45.475861" lon="9.3038031"><ele>112.20000000000002</ele><time>2026-04-19T12:22:04.008Z</time></trkpt><trkpt lat="45.4759556" lon="9.3038036"><ele>111.8</ele><time>2026-04-19T12:22:06.008Z</time></trkpt><trkpt lat="45.4760514" lon="9.3037974"><ele>111.4</ele><time>2026-04-19T12:22:08.007Z</time></trkpt><trkpt lat="45.4761429" lon="9.3037947"><ele>111.0</ele><time>2026-04-19T12:22:10.007Z</time></trkpt><trkpt lat="45.4762415" lon="9.3037923"><ele>111.19999999999999</ele><time>2026-04-19T12:22:12.008Z</time></trkpt><trkpt lat="45.4763354" lon="9.3037877"><ele>111.39999999999999</ele><time>2026-04-19T12:22:14.008Z</time></trkpt><trkpt lat="45.4764282" lon="9.3037852"><ele>111.6</ele><time>2026-04-19T12:22:16.008Z</time></trkpt><trkpt lat="45.4765233" lon="9.3037805"><ele>111.8</ele><time>2026-04-19T12:22:18.008Z</time></trkpt><trkpt lat="45.4766214" lon="9.3037813"><ele>112.0</ele><time>2026-04-19T12:22:20.007Z</time></trkpt><trkpt lat="45.4767202" lon="9.3037819"><ele>112.0</ele><time>2026-04-19T12:22:22.008Z</time></trkpt><trkpt lat="45.4768168" lon="9.3037804"><ele>111.99999999999999</ele><time>2026-04-19T12:22:24.007Z</time></trkpt><trkpt lat="45.4769153" lon="9.3037573"><ele>111.99999999999999</ele><time>2026-04-19T12:22:26.008Z</time></trkpt><trkpt lat="45.4769839" lon="9.3036725"><ele>112.0</ele><time>2026-04-19T12:22:28.008Z</time></trkpt><trkpt lat="45.4770404" lon="9.303573"><ele>112.0</ele><time>2026-04-19T12:22:30.008Z</time></trkpt><trkpt lat="45.4771287" lon="9.30351"><ele>112.0</ele><time>2026-04-19T12:22:32.008Z</time></trkpt><trkpt lat="45.4772022" lon="9.3034555"><ele>111.99999999999999</ele><time>2026-04-19T12:22:34.008Z</time></trkpt><trkpt lat="45.4772113" lon="9.3033383"><ele>111.99999999999999</ele><time>2026-04-19T12:22:36.007Z</time></trkpt><trkpt lat="45.4772037" lon="9.3032004"><ele>112.0</ele><time>2026-04-19T12:22:38.007Z</time></trkpt><trkpt lat="45.4771975" lon="9.3030639"><ele>112.0</ele><time>2026-04-19T12:22:40.007Z</time></trkpt><trkpt lat="45.477191" lon="9.3029292"><ele>112.0</ele><time>2026-04-19T12:22:42.007Z</time></trkpt><trkpt lat="45.4771892" lon="9.3027861"><ele>111.99999999999999</ele><time>2026-04-19T12:22:44.007Z</time></trkpt><trkpt lat="45.4771831" lon="9.3026493"><ele>111.99999999999999</ele><time>2026-04-19T12:22:46.007Z</time></trkpt><trkpt lat="45.4771802" lon="9.302511"><ele>112.0</ele><time>2026-04-19T12:22:48.008Z</time></trkpt><trkpt lat="45.4771822" lon="9.3023784"><ele>112.0</ele><time>2026-04-19T12:22:50.008Z</time></trkpt><trkpt lat="45.4771838" lon="9.302257"><ele>112.16666666666667</ele><time>2026-04-19T12:22:52.007Z</time></trkpt><trkpt lat="45.4771834" lon="9.3021324"><ele>112.33333333333334</ele><time>2026-04-19T12:22:54.008Z</time></trkpt><trkpt lat="45.4771816" lon="9.3020156"><ele>112.5</ele><time>2026-04-19T12:22:56.008Z</time></trkpt><trkpt lat="45.4771852" lon="9.301899"><ele>112.66666666666666</ele><time>2026-04-19T12:22:58.007Z</time></trkpt><trkpt lat="45.4771811" lon="9.3017725"><ele>112.83333333333333</ele><time>2026-04-19T12:23:00.008Z</time></trkpt><trkpt lat="45.4771843" lon="9.3016419"><ele>113.0</ele><time>2026-04-19T12:23:02.008Z</time></trkpt><trkpt lat="45.4771855" lon="9.3015114"><ele>113.2</ele><time>2026-04-19T12:23:04.007Z</time></trkpt><trkpt lat="45.4771831" lon="9.3013653"><ele>113.4</ele><time>2026-04-19T12:23:06.008Z</time></trkpt><trkpt lat="45.4771702" lon="9.3012176"><ele>113.60000000000001</ele><time>2026-04-19T12:23:08.008Z</time></trkpt><trkpt lat="45.4771612" lon="9.3010659"><ele>113.80000000000001</ele><time>2026-04-19T12:23:10.008Z</time></trkpt><trkpt lat="45.4771537" lon="9.3009165"><ele>114.0</ele><time>2026-04-19T12:23:12.008Z</time></trkpt><trkpt lat="45.4771514" lon="9.3007628"><ele>114.0</ele><time>2026-04-19T12:23:14.007Z</time></trkpt><trkpt lat="45.4771443" lon="9.3006056"><ele>114.0</ele><time>2026-04-19T12:23:16.008Z</time></trkpt><trkpt lat="45.4771347" lon="9.3004541"><ele>114.0</ele><time>2026-04-19T12:23:18.007Z</time></trkpt><trkpt lat="45.4771196" lon="9.3003076"><ele>114.0</ele><time>2026-04-19T12:23:20.008Z</time></trkpt><trkpt lat="45.477107" lon="9.3001609"><ele>114.0</ele><time>2026-04-19T12:23:22.007Z</time></trkpt><trkpt lat="45.4770908" lon="9.3000105"><ele>113.80000000000001</ele><time>2026-04-19T12:23:24.008Z</time></trkpt><trkpt lat="45.4770834" lon="9.2998682"><ele>113.60000000000001</ele><time>2026-04-19T12:23:26.008Z</time></trkpt><trkpt lat="45.4770769" lon="9.2997203"><ele>113.4</ele><time>2026-04-19T12:23:28.008Z</time></trkpt><trkpt lat="45.4770566" lon="9.2995797"><ele>113.2</ele><time>2026-04-19T12:23:30.008Z</time></trkpt><trkpt lat="45.4770275" lon="9.2994462"><ele>113.0</ele><time>2026-04-19T12:23:32.007Z</time></trkpt><trkpt lat="45.4770036" lon="9.2993074"><ele>113.0</ele><time>2026-04-19T12:23:34.008Z</time></trkpt><trkpt lat="45.476984" lon="9.2991793"><ele>113.00000000000001</ele><time>2026-04-19T12:23:36.007Z</time></trkpt><trkpt lat="45.4769537" lon="9.2990597"><ele>113.00000000000001</ele><time>2026-04-19T12:23:38.007Z</time></trkpt><trkpt lat="45.4768996" lon="9.2989402"><ele>113.0</ele><time>2026-04-19T12:23:40.008Z</time></trkpt><trkpt lat="45.4768593" lon="9.2988343"><ele>113.0</ele><time>2026-04-19T12:23:42.007Z</time></trkpt><trkpt lat="45.4768591" lon="9.2987059"><ele>113.0</ele><time>2026-04-19T12:23:44.007Z</time></trkpt><trkpt lat="45.476879" lon="9.2985684"><ele>113.00000000000001</ele><time>2026-04-19T12:23:46.007Z</time></trkpt><trkpt lat="45.4769017" lon="9.2984268"><ele>113.00000000000001</ele><time>2026-04-19T12:23:48.007Z</time></trkpt><trkpt lat="45.4768772" lon="9.2982819"><ele>113.0</ele><time>2026-04-19T12:23:50.008Z</time></trkpt><trkpt lat="45.4768508" lon="9.2981427"><ele>113.0</ele><time>2026-04-19T12:23:52.008Z</time></trkpt><trkpt lat="45.4768259" lon="9.2980062"><ele>113.2</ele><time>2026-04-19T12:23:54.007Z</time></trkpt><trkpt lat="45.4768026" lon="9.2978633"><ele>113.4</ele><time>2026-04-19T12:23:56.007Z</time></trkpt><trkpt lat="45.4767876" lon="9.2977237"><ele>113.60000000000001</ele><time>2026-04-19T12:23:58.007Z</time></trkpt><trkpt lat="45.4767681" lon="9.2975864"><ele>113.80000000000001</ele><time>2026-04-19T12:24:00.007Z</time></trkpt><trkpt lat="45.4767496" lon="9.2974457"><ele>114.0</ele><time>2026-04-19T12:24:02.007Z</time></trkpt><trkpt lat="45.4767367" lon="9.2973051"><ele>114.6</ele><time>2026-04-19T12:24:04.008Z</time></trkpt><trkpt lat="45.4767163" lon="9.2971634"><ele>115.2</ele><time>2026-04-19T12:24:06.007Z</time></trkpt><trkpt lat="45.4767011" lon="9.2970256"><ele>115.79999999999998</ele><time>2026-04-19T12:24:08.008Z</time></trkpt><trkpt lat="45.4766803" lon="9.2968857"><ele>116.39999999999999</ele><time>2026-04-19T12:24:10.007Z</time></trkpt><trkpt lat="45.4766629" lon="9.296744"><ele>117.0</ele><time>2026-04-19T12:24:12.008Z</time></trkpt><trkpt lat="45.4766495" lon="9.296604"><ele>117.0</ele><time>2026-04-19T12:24:14.008Z</time></trkpt><trkpt lat="45.4766409" lon="9.2964624"><ele>116.99999999999999</ele><time>2026-04-19T12:24:16.007Z</time></trkpt><trkpt lat="45.4766321" lon="9.2963175"><ele>116.99999999999999</ele><time>2026-04-19T12:24:18.008Z</time></trkpt><trkpt lat="45.4766093" lon="9.296181"><ele>117.0</ele><time>2026-04-19T12:24:20.008Z</time></trkpt><trkpt lat="45.4765803" lon="9.2960433"><ele>117.0</ele><time>2026-04-19T12:24:22.008Z</time></trkpt><trkpt lat="45.4765358" lon="9.2959144"><ele>117.0</ele><time>2026-04-19T12:24:24.008Z</time></trkpt><trkpt lat="45.4764758" lon="9.2958115"><ele>117.0</ele><time>2026-04-19T12:24:26.007Z</time></trkpt><trkpt lat="45.4764018" lon="9.2957315"><ele>117.0</ele><time>2026-04-19T12:24:28.007Z</time></trkpt><trkpt lat="45.4763211" lon="9.2956921"><ele>117.0</ele><time>2026-04-19T12:24:30.007Z</time></trkpt><trkpt lat="45.4762466" lon="9.2957014"><ele>117.0</ele><time>2026-04-19T12:24:32.007Z</time></trkpt><trkpt lat="45.4761806" lon="9.2957057"><ele>117.0</ele><time>2026-04-19T12:24:34.007Z</time></trkpt><trkpt lat="45.4761076" lon="9.295741"><ele>116.85714285714286</ele><time>2026-04-19T12:24:37.008Z</time></trkpt><trkpt lat="45.4760399" lon="9.2957613"><ele>116.71428571428572</ele><time>2026-04-19T12:24:40.008Z</time></trkpt><trkpt lat="45.4759749" lon="9.2957953"><ele>116.57142857142858</ele><time>2026-04-19T12:24:43.008Z</time></trkpt><trkpt lat="45.4759072" lon="9.2958328"><ele>116.42857142857144</ele><time>2026-04-19T12:24:46.008Z</time></trkpt><trkpt lat="45.4758405" lon="9.2958636"><ele>116.28571428571429</ele><time>2026-04-19T12:24:49.007Z</time></trkpt><trkpt lat="45.4757774" lon="9.2958939"><ele>116.14285714285717</ele><time>2026-04-19T12:24:52.007Z</time></trkpt><trkpt lat="45.4757465" lon="9.2957761"><ele>116.00000000000001</ele><time>2026-04-19T12:24:56.008Z</time></trkpt><trkpt lat="45.4757398" lon="9.2956581"><ele>116.49999999999999</ele><time>2026-04-19T12:24:59.008Z</time></trkpt><trkpt lat="45.4757752" lon="9.2955653"><ele>117.0</ele><time>2026-04-19T12:25:02.008Z</time></trkpt><trkpt lat="45.4758592" lon="9.2955412"><ele>117.5</ele><time>2026-04-19T12:25:04.008Z</time></trkpt><trkpt lat="45.4759537" lon="9.2954951"><ele>118.0</ele><time>2026-04-19T12:25:06.007Z</time></trkpt><trkpt lat="45.4760689" lon="9.2954381"><ele>118.49999999999999</ele><time>2026-04-19T12:25:08.008Z</time></trkpt><trkpt lat="45.4761258" lon="9.2953935"><ele>119.0</ele><time>2026-04-19T12:25:09.008Z</time></trkpt><trkpt lat="45.4761824" lon="9.2953517"><ele>119.0</ele><time>2026-04-19T12:25:10.008Z</time></trkpt><trkpt lat="45.4762398" lon="9.2953096"><ele>119.0</ele><time>2026-04-19T12:25:11.008Z</time></trkpt><trkpt lat="45.4762989" lon="9.2951907"><ele>119.0</ele><time>2026-04-19T12:25:13.007Z</time></trkpt><trkpt lat="45.4763473" lon="9.2950709"><ele>119.0</ele><time>2026-04-19T12:25:15.007Z</time></trkpt><trkpt lat="45.4764015" lon="9.2949587"><ele>119.0</ele><time>2026-04-19T12:25:17.008Z</time></trkpt><trkpt lat="45.4764454" lon="9.2948264"><ele>118.4</ele><time>2026-04-19T12:25:19.007Z</time></trkpt><trkpt lat="45.476468" lon="9.2946838"><ele>117.80000000000001</ele><time>2026-04-19T12:25:21.007Z</time></trkpt><trkpt lat="45.4764791" lon="9.2945442"><ele>117.19999999999999</ele><time>2026-04-19T12:25:23.007Z</time></trkpt><trkpt lat="45.4764744" lon="9.2943972"><ele>116.6</ele><time>2026-04-19T12:25:25.007Z</time></trkpt><trkpt lat="45.4764653" lon="9.2942575"><ele>116.0</ele><time>2026-04-19T12:25:27.007Z</time></trkpt><trkpt lat="45.4764536" lon="9.2941201"><ele>116.0</ele><time>2026-04-19T12:25:29.007Z</time></trkpt><trkpt lat="45.4764373" lon="9.2939813"><ele>116.0</ele><time>2026-04-19T12:25:31.008Z</time></trkpt><trkpt lat="45.476415" lon="9.2938375"><ele>116.0</ele><time>2026-04-19T12:25:33.007Z</time></trkpt><trkpt lat="45.4764001" lon="9.2936935"><ele>116.0</ele><time>2026-04-19T12:25:35.007Z</time></trkpt><trkpt lat="45.4763851" lon="9.2935525"><ele>116.0</ele><time>2026-04-19T12:25:37.007Z</time></trkpt><trkpt lat="45.476369" lon="9.2934175"><ele>115.8</ele><time>2026-04-19T12:25:39.007Z</time></trkpt><trkpt lat="45.4763457" lon="9.2932791"><ele>115.6</ele><time>2026-04-19T12:25:41.007Z</time></trkpt><trkpt lat="45.4763287" lon="9.2931358"><ele>115.4</ele><time>2026-04-19T12:25:43.008Z</time></trkpt><trkpt lat="45.4763093" lon="9.2929972"><ele>115.2</ele><time>2026-04-19T12:25:45.007Z</time></trkpt><trkpt lat="45.4762916" lon="9.2928585"><ele>115.0</ele><time>2026-04-19T12:25:47.007Z</time></trkpt><trkpt lat="45.4762653" lon="9.2927201"><ele>114.8</ele><time>2026-04-19T12:25:49.008Z</time></trkpt><trkpt lat="45.4762434" lon="9.2925859"><ele>114.6</ele><time>2026-04-19T12:25:51.008Z</time></trkpt><trkpt lat="45.4762105" lon="9.29246"><ele>114.4</ele><time>2026-04-19T12:25:53.007Z</time></trkpt><trkpt lat="45.4761726" lon="9.2923289"><ele>114.2</ele><time>2026-04-19T12:25:55.008Z</time></trkpt><trkpt lat="45.4761374" lon="9.2921995"><ele>114.0</ele><time>2026-04-19T12:25:57.007Z</time></trkpt><trkpt lat="45.4761079" lon="9.2920616"><ele>114.0</ele><time>2026-04-19T12:25:59.008Z</time></trkpt><trkpt lat="45.4760681" lon="9.2919222"><ele>114.0</ele><time>2026-04-19T12:26:01.008Z</time></trkpt><trkpt lat="45.4760301" lon="9.2917898"><ele>114.0</ele><time>2026-04-19T12:26:03.008Z</time></trkpt><trkpt lat="45.4759935" lon="9.2916562"><ele>114.0</ele><time>2026-04-19T12:26:05.007Z</time></trkpt><trkpt lat="45.475957" lon="9.2915241"><ele>114.0</ele><time>2026-04-19T12:26:07.008Z</time></trkpt><trkpt lat="45.4759183" lon="9.2913893"><ele>113.80000000000001</ele><time>2026-04-19T12:26:09.008Z</time></trkpt><trkpt lat="45.4758839" lon="9.2912567"><ele>113.60000000000001</ele><time>2026-04-19T12:26:11.008Z</time></trkpt><trkpt lat="45.4758418" lon="9.2911266"><ele>113.4</ele><time>2026-04-19T12:26:13.008Z</time></trkpt><trkpt lat="45.4758045" lon="9.2909999"><ele>113.2</ele><time>2026-04-19T12:26:15.008Z</time></trkpt><trkpt lat="45.4757679" lon="9.2908702"><ele>113.0</ele><time>2026-04-19T12:26:17.008Z</time></trkpt><trkpt lat="45.4757331" lon="9.2907357"><ele>113.0</ele><time>2026-04-19T12:26:19.007Z</time></trkpt><trkpt lat="45.4756937" lon="9.2906034"><ele>113.00000000000001</ele><time>2026-04-19T12:26:21.007Z</time></trkpt><trkpt lat="45.4756567" lon="9.2904762"><ele>113.00000000000001</ele><time>2026-04-19T12:26:23.008Z</time></trkpt><trkpt lat="45.4756188" lon="9.2903465"><ele>113.0</ele><time>2026-04-19T12:26:25.007Z</time></trkpt><trkpt lat="45.4755795" lon="9.2902164"><ele>113.0</ele><time>2026-04-19T12:26:27.007Z</time></trkpt><trkpt lat="45.4755378" lon="9.2900818"><ele>113.0</ele><time>2026-04-19T12:26:29.008Z</time></trkpt><trkpt lat="45.4754964" lon="9.2899485"><ele>113.00000000000001</ele><time>2026-04-19T12:26:31.008Z</time></trkpt><trkpt lat="45.4754648" lon="9.2898184"><ele>113.00000000000001</ele><time>2026-04-19T12:26:33.007Z</time></trkpt><trkpt lat="45.4754288" lon="9.2896865"><ele>113.0</ele><time>2026-04-19T12:26:35.008Z</time></trkpt><trkpt lat="45.4753866" lon="9.2895624"><ele>113.0</ele><time>2026-04-19T12:26:37.007Z</time></trkpt><trkpt lat="45.4753347" lon="9.2894413"><ele>112.4</ele><time>2026-04-19T12:26:39.008Z</time></trkpt><trkpt lat="45.4752769" lon="9.289326"><ele>111.80000000000001</ele><time>2026-04-19T12:26:41.007Z</time></trkpt><trkpt lat="45.4752109" lon="9.2892216"><ele>111.2</ele><time>2026-04-19T12:26:43.008Z</time></trkpt><trkpt lat="45.4751417" lon="9.2891293"><ele>110.6</ele><time>2026-04-19T12:26:45.007Z</time></trkpt><trkpt lat="45.4750694" lon="9.2890424"><ele>110.0</ele><time>2026-04-19T12:26:47.008Z</time></trkpt><trkpt lat="45.474992" lon="9.2889725"><ele>110.83333333333333</ele><time>2026-04-19T12:26:49.008Z</time></trkpt><trkpt lat="45.4749403" lon="9.2888928"><ele>111.66666666666666</ele><time>2026-04-19T12:26:51.007Z</time></trkpt><trkpt lat="45.4749785" lon="9.2888123"><ele>112.5</ele><time>2026-04-19T12:26:53.007Z</time></trkpt><trkpt lat="45.4750277" lon="9.2887397"><ele>113.33333333333334</ele><time>2026-04-19T12:26:55.008Z</time></trkpt><trkpt lat="45.4750274" lon="9.2886434"><ele>114.16666666666667</ele><time>2026-04-19T12:26:57.008Z</time></trkpt><trkpt lat="45.4749587" lon="9.2885591"><ele>115.0</ele><time>2026-04-19T12:26:59.007Z</time></trkpt><trkpt lat="45.4748912" lon="9.2884521"><ele>115.0</ele><time>2026-04-19T12:27:01.008Z</time></trkpt><trkpt lat="45.4748262" lon="9.2883326"><ele>115.0</ele><time>2026-04-19T12:27:03.008Z</time></trkpt><trkpt lat="45.4747469" lon="9.2882003"><ele>115.0</ele><time>2026-04-19T12:27:05.007Z</time></trkpt><trkpt lat="45.4746714" lon="9.2880832"><ele>115.0</ele><time>2026-04-19T12:27:07.007Z</time></trkpt><trkpt lat="45.4746284" lon="9.2880021"><ele>115.0</ele><time>2026-04-19T12:27:09.007Z</time></trkpt><trkpt lat="45.474621" lon="9.2878857"><ele>115.0</ele><time>2026-04-19T12:27:12.008Z</time></trkpt><trkpt lat="45.4747293" lon="9.2873407"><ele>115.0</ele><time>2026-04-19T12:27:19.007Z</time></trkpt><trkpt lat="45.4746679" lon="9.2872555"><ele>114.7142857142857</ele><time>2026-04-19T12:27:23.008Z</time></trkpt><trkpt lat="45.4746334" lon="9.2871801"><ele>114.42857142857142</ele><time>2026-04-19T12:27:25.008Z</time></trkpt><trkpt lat="45.4745945" lon="9.2871049"><ele>114.14285714285714</ele><time>2026-04-19T12:27:27.007Z</time></trkpt><trkpt lat="45.4745528" lon="9.2870349"><ele>113.85714285714285</ele><time>2026-04-19T12:27:29.008Z</time></trkpt><trkpt lat="45.4744919" lon="9.2869369"><ele>113.57142857142856</ele><time>2026-04-19T12:27:32.007Z</time></trkpt><trkpt lat="45.4744328" lon="9.2868363"><ele>113.28571428571429</ele><time>2026-04-19T12:27:35.007Z</time></trkpt><trkpt lat="45.4743791" lon="9.2867872"><ele>113.0</ele><time>2026-04-19T12:27:37.007Z</time></trkpt><trkpt lat="45.4743289" lon="9.2867192"><ele>112.66666666666666</ele><time>2026-04-19T12:27:39.007Z</time></trkpt><trkpt lat="45.4742854" lon="9.2866386"><ele>112.33333333333333</ele><time>2026-04-19T12:27:41.007Z</time></trkpt><trkpt lat="45.4742454" lon="9.2865563"><ele>112.0</ele><time>2026-04-19T12:27:43.008Z</time></trkpt><trkpt lat="45.4741982" lon="9.2864737"><ele>111.66666666666666</ele><time>2026-04-19T12:27:45.007Z</time></trkpt><trkpt lat="45.4741474" lon="9.2863843"><ele>111.33333333333333</ele><time>2026-04-19T12:27:47.007Z</time></trkpt><trkpt lat="45.4740872" lon="9.2863033"><ele>111.0</ele><time>2026-04-19T12:27:49.007Z</time></trkpt><trkpt lat="45.4740257" lon="9.2862247"><ele>111.0</ele><time>2026-04-19T12:27:51.007Z</time></trkpt><trkpt lat="45.4739919" lon="9.2861129"><ele>111.0</ele><time>2026-04-19T12:27:53.008Z</time></trkpt><trkpt lat="45.4739932" lon="9.2859898"><ele>111.0</ele><time>2026-04-19T12:27:55.008Z</time></trkpt><trkpt lat="45.4739665" lon="9.2858639"><ele>111.0</ele><time>2026-04-19T12:27:57.007Z</time></trkpt><trkpt lat="45.4739515" lon="9.2857351"><ele>111.0</ele><time>2026-04-19T12:27:59.008Z</time></trkpt><trkpt lat="45.4739525" lon="9.2855972"><ele>111.19999999999999</ele><time>2026-04-19T12:28:01.008Z</time></trkpt><trkpt lat="45.4739563" lon="9.2854501"><ele>111.39999999999999</ele><time>2026-04-19T12:28:03.008Z</time></trkpt><trkpt lat="45.4739646" lon="9.2852943"><ele>111.6</ele><time>2026-04-19T12:28:05.007Z</time></trkpt><trkpt lat="45.4739756" lon="9.2851351"><ele>111.8</ele><time>2026-04-19T12:28:07.008Z</time></trkpt><trkpt lat="45.4739795" lon="9.2849842"><ele>112.0</ele><time>2026-04-19T12:28:09.007Z</time></trkpt><trkpt lat="45.473983" lon="9.2848342"><ele>112.39999999999999</ele><time>2026-04-19T12:28:11.007Z</time></trkpt><trkpt lat="45.4739869" lon="9.2846837"><ele>112.79999999999998</ele><time>2026-04-19T12:28:13.008Z</time></trkpt><trkpt lat="45.4739912" lon="9.2845299"><ele>113.2</ele><time>2026-04-19T12:28:15.008Z</time></trkpt><trkpt lat="45.4739939" lon="9.2843855"><ele>113.6</ele><time>2026-04-19T12:28:17.007Z</time></trkpt><trkpt lat="45.4739983" lon="9.2842383"><ele>114.0</ele><time>2026-04-19T12:28:19.007Z</time></trkpt><trkpt lat="45.4740118" lon="9.284093"><ele>114.0</ele><time>2026-04-19T12:28:21.007Z</time></trkpt><trkpt lat="45.4740183" lon="9.2839527"><ele>114.0</ele><time>2026-04-19T12:28:23.007Z</time></trkpt><trkpt lat="45.474043" lon="9.2838133"><ele>114.0</ele><time>2026-04-19T12:28:25.008Z</time></trkpt><trkpt lat="45.4740703" lon="9.2836782"><ele>114.0</ele><time>2026-04-19T12:28:27.008Z</time></trkpt><trkpt lat="45.4741096" lon="9.2835443"><ele>114.0</ele><time>2026-04-19T12:28:29.008Z</time></trkpt><trkpt lat="45.4741465" lon="9.2834104"><ele>114.2</ele><time>2026-04-19T12:28:31.007Z</time></trkpt><trkpt lat="45.4741844" lon="9.2832785"><ele>114.4</ele><time>2026-04-19T12:28:33.008Z</time></trkpt><trkpt lat="45.4742208" lon="9.2831516"><ele>114.6</ele><time>2026-04-19T12:28:35.008Z</time></trkpt><trkpt lat="45.4742641" lon="9.2830239"><ele>114.8</ele><time>2026-04-19T12:28:37.007Z</time></trkpt><trkpt lat="45.4742986" lon="9.282891"><ele>115.0</ele><time>2026-04-19T12:28:39.007Z</time></trkpt><trkpt lat="45.4743094" lon="9.2827481"><ele>114.4</ele><time>2026-04-19T12:28:41.008Z</time></trkpt><trkpt lat="45.4743266" lon="9.2826096"><ele>113.8</ele><time>2026-04-19T12:28:43.008Z</time></trkpt><trkpt lat="45.4743515" lon="9.2824671"><ele>113.19999999999999</ele><time>2026-04-19T12:28:45.008Z</time></trkpt><trkpt lat="45.4743743" lon="9.282322"><ele>112.6</ele><time>2026-04-19T12:28:47.007Z</time></trkpt><trkpt lat="45.4743883" lon="9.2821715"><ele>112.0</ele><time>2026-04-19T12:28:49.008Z</time></trkpt><trkpt lat="45.474397" lon="9.2820242"><ele>112.0</ele><time>2026-04-19T12:28:51.008Z</time></trkpt><trkpt lat="45.4743953" lon="9.2818704"><ele>111.99999999999999</ele><time>2026-04-19T12:28:53.008Z</time></trkpt><trkpt lat="45.4743668" lon="9.281729"><ele>111.99999999999999</ele><time>2026-04-19T12:28:55.007Z</time></trkpt><trkpt lat="45.4743265" lon="9.2815864"><ele>112.0</ele><time>2026-04-19T12:28:57.008Z</time></trkpt><trkpt lat="45.4742785" lon="9.281446"><ele>112.0</ele><time>2026-04-19T12:28:59.008Z</time></trkpt><trkpt lat="45.4742282" lon="9.2813045"><ele>112.19999999999999</ele><time>2026-04-19T12:29:01.008Z</time></trkpt><trkpt lat="45.4741802" lon="9.2811617"><ele>112.39999999999999</ele><time>2026-04-19T12:29:03.007Z</time></trkpt><trkpt lat="45.4741345" lon="9.2810226"><ele>112.60000000000001</ele><time>2026-04-19T12:29:05.008Z</time></trkpt><trkpt lat="45.4740805" lon="9.2808844"><ele>112.80000000000001</ele><time>2026-04-19T12:29:07.007Z</time></trkpt><trkpt lat="45.4740287" lon="9.2807435"><ele>113.0</ele><time>2026-04-19T12:29:09.008Z</time></trkpt><trkpt lat="45.4739737" lon="9.280602"><ele>113.0</ele><time>2026-04-19T12:29:11.007Z</time></trkpt><trkpt lat="45.4739215" lon="9.2804584"><ele>113.00000000000001</ele><time>2026-04-19T12:29:13.008Z</time></trkpt><trkpt lat="45.4738734" lon="9.2803141"><ele>113.00000000000001</ele><time>2026-04-19T12:29:15.008Z</time></trkpt><trkpt lat="45.4738204" lon="9.2801736"><ele>113.0</ele><time>2026-04-19T12:29:17.007Z</time></trkpt><trkpt lat="45.4737746" lon="9.2800327"><ele>113.0</ele><time>2026-04-19T12:29:19.007Z</time></trkpt><trkpt lat="45.4737244" lon="9.2798971"><ele>112.80000000000001</ele><time>2026-04-19T12:29:21.007Z</time></trkpt><trkpt lat="45.4736795" lon="9.2797582"><ele>112.60000000000001</ele><time>2026-04-19T12:29:23.007Z</time></trkpt><trkpt lat="45.4736328" lon="9.2796206"><ele>112.39999999999999</ele><time>2026-04-19T12:29:25.008Z</time></trkpt><trkpt lat="45.4735914" lon="9.2794751"><ele>112.19999999999999</ele><time>2026-04-19T12:29:27.007Z</time></trkpt><trkpt lat="45.4735556" lon="9.2793357"><ele>112.0</ele><time>2026-04-19T12:29:29.008Z</time></trkpt><trkpt lat="45.4735299" lon="9.2791877"><ele>112.0</ele><time>2026-04-19T12:29:31.007Z</time></trkpt><trkpt lat="45.4735044" lon="9.2790446"><ele>111.99999999999999</ele><time>2026-04-19T12:29:33.007Z</time></trkpt><trkpt lat="45.4734625" lon="9.2789057"><ele>111.99999999999999</ele><time>2026-04-19T12:29:35.008Z</time></trkpt><trkpt lat="45.4734061" lon="9.2787774"><ele>112.0</ele><time>2026-04-19T12:29:37.007Z</time></trkpt><trkpt lat="45.4733479" lon="9.2786467"><ele>112.0</ele><time>2026-04-19T12:29:39.007Z</time></trkpt><trkpt lat="45.4732919" lon="9.27852"><ele>112.39999999999999</ele><time>2026-04-19T12:29:41.007Z</time></trkpt><trkpt lat="45.4732367" lon="9.278396"><ele>112.79999999999998</ele><time>2026-04-19T12:29:43.007Z</time></trkpt><trkpt lat="45.4731838" lon="9.2782635"><ele>113.2</ele><time>2026-04-19T12:29:45.008Z</time></trkpt><trkpt lat="45.4731302" lon="9.2781312"><ele>113.6</ele><time>2026-04-19T12:29:47.007Z</time></trkpt><trkpt lat="45.473075" lon="9.2780012"><ele>114.0</ele><time>2026-04-19T12:29:49.008Z</time></trkpt><trkpt lat="45.4730211" lon="9.2778683"><ele>114.2</ele><time>2026-04-19T12:29:51.007Z</time></trkpt><trkpt lat="45.472965" lon="9.277735"><ele>114.4</ele><time>2026-04-19T12:29:53.007Z</time></trkpt><trkpt lat="45.4729111" lon="9.2775987"><ele>114.6</ele><time>2026-04-19T12:29:55.007Z</time></trkpt><trkpt lat="45.4728535" lon="9.2774668"><ele>114.8</ele><time>2026-04-19T12:29:57.007Z</time></trkpt><trkpt lat="45.4727903" lon="9.277338"><ele>115.0</ele><time>2026-04-19T12:29:59.008Z</time></trkpt><trkpt lat="45.4727377" lon="9.2771959"><ele>115.0</ele><time>2026-04-19T12:30:01.007Z</time></trkpt><trkpt lat="45.4727127" lon="9.2770332"><ele>115.0</ele><time>2026-04-19T12:30:03.008Z</time></trkpt><trkpt lat="45.4726866" lon="9.2768815"><ele>115.0</ele><time>2026-04-19T12:30:05.007Z</time></trkpt><trkpt lat="45.4726776" lon="9.2767227"><ele>115.0</ele><time>2026-04-19T12:30:07.008Z</time></trkpt><trkpt lat="45.4726696" lon="9.2765634"><ele>114.2</ele><time>2026-04-19T12:30:09.008Z</time></trkpt><trkpt lat="45.4726739" lon="9.2764144"><ele>113.4</ele><time>2026-04-19T12:30:11.008Z</time></trkpt><trkpt lat="45.4726721" lon="9.2762582"><ele>112.6</ele><time>2026-04-19T12:30:13.008Z</time></trkpt><trkpt lat="45.4726705" lon="9.2761042"><ele>111.8</ele><time>2026-04-19T12:30:15.007Z</time></trkpt><trkpt lat="45.4726681" lon="9.2759484"><ele>111.0</ele><time>2026-04-19T12:30:17.007Z</time></trkpt><trkpt lat="45.4726644" lon="9.275798"><ele>111.0</ele><time>2026-04-19T12:30:19.008Z</time></trkpt><trkpt lat="45.4726629" lon="9.2756405"><ele>111.0</ele><time>2026-04-19T12:30:21.007Z</time></trkpt><trkpt lat="45.4726658" lon="9.2754889"><ele>111.0</ele><time>2026-04-19T12:30:23.008Z</time></trkpt><trkpt lat="45.4726723" lon="9.275335"><ele>111.0</ele><time>2026-04-19T12:30:25.008Z</time></trkpt><trkpt lat="45.4726817" lon="9.2751783"><ele>111.0</ele><time>2026-04-19T12:30:27.007Z</time></trkpt><trkpt lat="45.4726934" lon="9.2750191"><ele>111.25</ele><time>2026-04-19T12:30:29.007Z</time></trkpt><trkpt lat="45.472701" lon="9.2748548"><ele>111.5</ele><time>2026-04-19T12:30:31.007Z</time></trkpt><trkpt lat="45.4727108" lon="9.2746918"><ele>111.75</ele><time>2026-04-19T12:30:33.008Z</time></trkpt><trkpt lat="45.4727207" lon="9.2745261"><ele>112.0</ele><time>2026-04-19T12:30:35.008Z</time></trkpt><trkpt lat="45.4727324" lon="9.2743611"><ele>112.25</ele><time>2026-04-19T12:30:37.008Z</time></trkpt><trkpt lat="45.4727477" lon="9.2741934"><ele>112.5</ele><time>2026-04-19T12:30:39.007Z</time></trkpt><trkpt lat="45.4727531" lon="9.2740358"><ele>112.75</ele><time>2026-04-19T12:30:41.007Z</time></trkpt><trkpt lat="45.4727541" lon="9.2738749"><ele>113.0</ele><time>2026-04-19T12:30:43.007Z</time></trkpt><trkpt lat="45.4727585" lon="9.2737146"><ele>113.0</ele><time>2026-04-19T12:30:45.008Z</time></trkpt><trkpt lat="45.472747" lon="9.2735499"><ele>113.0</ele><time>2026-04-19T12:30:47.008Z</time></trkpt><trkpt lat="45.4727354" lon="9.2733855"><ele>113.0</ele><time>2026-04-19T12:30:49.008Z</time></trkpt><trkpt lat="45.4727216" lon="9.273219"><ele>113.0</ele><time>2026-04-19T12:30:51.008Z</time></trkpt><trkpt lat="45.4727044" lon="9.2730564"><ele>112.75</ele><time>2026-04-19T12:30:53.008Z</time></trkpt><trkpt lat="45.4726902" lon="9.2728937"><ele>112.5</ele><time>2026-04-19T12:30:55.008Z</time></trkpt><trkpt lat="45.472678" lon="9.2727315"><ele>112.25</ele><time>2026-04-19T12:30:57.007Z</time></trkpt><trkpt lat="45.4726694" lon="9.2725711"><ele>112.0</ele><time>2026-04-19T12:30:59.007Z</time></trkpt><trkpt lat="45.472652" lon="9.2724124"><ele>112.5</ele><time>2026-04-19T12:31:01.007Z</time></trkpt><trkpt lat="45.4726348" lon="9.2722572"><ele>113.0</ele><time>2026-04-19T12:31:03.008Z</time></trkpt><trkpt lat="45.4726092" lon="9.2721038"><ele>113.5</ele><time>2026-04-19T12:31:05.008Z</time></trkpt><trkpt lat="45.4725642" lon="9.2719516"><ele>114.0</ele><time>2026-04-19T12:31:07.007Z</time></trkpt><trkpt lat="45.4725207" lon="9.2718027"><ele>114.0</ele><time>2026-04-19T12:31:09.008Z</time></trkpt><trkpt lat="45.4724747" lon="9.2716526"><ele>114.0</ele><time>2026-04-19T12:31:11.008Z</time></trkpt><trkpt lat="45.4724263" lon="9.2715013"><ele>114.0</ele><time>2026-04-19T12:31:13.007Z</time></trkpt><trkpt lat="45.4723903" lon="9.2713467"><ele>114.0</ele><time>2026-04-19T12:31:15.007Z</time></trkpt><trkpt lat="45.4723707" lon="9.2711877"><ele>113.75</ele><time>2026-04-19T12:31:17.007Z</time></trkpt><trkpt lat="45.4723579" lon="9.2710222"><ele>113.5</ele><time>2026-04-19T12:31:19.007Z</time></trkpt><trkpt lat="45.4723619" lon="9.2708588"><ele>113.25</ele><time>2026-04-19T12:31:21.007Z</time></trkpt><trkpt lat="45.4723675" lon="9.2706909"><ele>113.0</ele><time>2026-04-19T12:31:23.008Z</time></trkpt><trkpt lat="45.4723817" lon="9.2705326"><ele>113.0</ele><time>2026-04-19T12:31:25.008Z</time></trkpt><trkpt lat="45.4723908" lon="9.2703679"><ele>113.0</ele><time>2026-04-19T12:31:27.008Z</time></trkpt><trkpt lat="45.4723995" lon="9.2702079"><ele>113.0</ele><time>2026-04-19T12:31:29.007Z</time></trkpt><trkpt lat="45.4724013" lon="9.2700516"><ele>113.0</ele><time>2026-04-19T12:31:31.007Z</time></trkpt><trkpt lat="45.4724049" lon="9.2698921"><ele>112.75</ele><time>2026-04-19T12:31:33.007Z</time></trkpt><trkpt lat="45.4723956" lon="9.2697271"><ele>112.5</ele><time>2026-04-19T12:31:35.008Z</time></trkpt><trkpt lat="45.4723805" lon="9.2695626"><ele>112.25</ele><time>2026-04-19T12:31:37.008Z</time></trkpt><trkpt lat="45.4723622" lon="9.2693974"><ele>112.0</ele><time>2026-04-19T12:31:39.008Z</time></trkpt><trkpt lat="45.4723389" lon="9.2692391"><ele>112.0</ele><time>2026-04-19T12:31:41.008Z</time></trkpt><trkpt lat="45.4723181" lon="9.2690827"><ele>112.0</ele><time>2026-04-19T12:31:43.007Z</time></trkpt><trkpt lat="45.4723012" lon="9.268922"><ele>112.0</ele><time>2026-04-19T12:31:45.008Z</time></trkpt><trkpt lat="45.4722789" lon="9.2687635"><ele>112.0</ele><time>2026-04-19T12:31:47.007Z</time></trkpt><trkpt lat="45.472263" lon="9.2686031"><ele>112.25</ele><time>2026-04-19T12:31:49.008Z</time></trkpt><trkpt lat="45.4722427" lon="9.2684449"><ele>112.5</ele><time>2026-04-19T12:31:51.007Z</time></trkpt><trkpt lat="45.4722242" lon="9.2682836"><ele>112.75</ele><time>2026-04-19T12:31:53.007Z</time></trkpt><trkpt lat="45.4722064" lon="9.2681216"><ele>113.0</ele><time>2026-04-19T12:31:55.008Z</time></trkpt><trkpt lat="45.4721926" lon="9.2679586"><ele>113.0</ele><time>2026-04-19T12:31:57.007Z</time></trkpt><trkpt lat="45.472176" lon="9.2677994"><ele>113.00000000000001</ele><time>2026-04-19T12:31:59.007Z</time></trkpt><trkpt lat="45.4721546" lon="9.267643"><ele>113.00000000000001</ele><time>2026-04-19T12:32:01.008Z</time></trkpt><trkpt lat="45.472141" lon="9.2674808"><ele>113.0</ele><time>2026-04-19T12:32:03.008Z</time></trkpt><trkpt lat="45.4721274" lon="9.2673253"><ele>113.0</ele><time>2026-04-19T12:32:05.008Z</time></trkpt><trkpt lat="45.4721092" lon="9.2671727"><ele>112.80000000000001</ele><time>2026-04-19T12:32:07.007Z</time></trkpt><trkpt lat="45.4720955" lon="9.2670233"><ele>112.60000000000001</ele><time>2026-04-19T12:32:09.007Z</time></trkpt><trkpt lat="45.4720781" lon="9.2668711"><ele>112.39999999999999</ele><time>2026-04-19T12:32:11.007Z</time></trkpt><trkpt lat="45.4720627" lon="9.2667144"><ele>112.19999999999999</ele><time>2026-04-19T12:32:13.007Z</time></trkpt><trkpt lat="45.4720473" lon="9.2665544"><ele>112.0</ele><time>2026-04-19T12:32:15.008Z</time></trkpt><trkpt lat="45.4720293" lon="9.2663936"><ele>111.25</ele><time>2026-04-19T12:32:17.008Z</time></trkpt><trkpt lat="45.4720127" lon="9.2662337"><ele>110.5</ele><time>2026-04-19T12:32:19.007Z</time></trkpt><trkpt lat="45.4719964" lon="9.2660722"><ele>109.75</ele><time>2026-04-19T12:32:21.007Z</time></trkpt><trkpt lat="45.4719746" lon="9.2659107"><ele>109.0</ele><time>2026-04-19T12:32:23.008Z</time></trkpt><trkpt lat="45.4719594" lon="9.2657477"><ele>109.5</ele><time>2026-04-19T12:32:25.007Z</time></trkpt><trkpt lat="45.4719459" lon="9.2655852"><ele>110.0</ele><time>2026-04-19T12:32:27.008Z</time></trkpt><trkpt lat="45.4719316" lon="9.2654285"><ele>110.5</ele><time>2026-04-19T12:32:29.008Z</time></trkpt><trkpt lat="45.4719151" lon="9.2652662"><ele>111.0</ele><time>2026-04-19T12:32:31.008Z</time></trkpt><trkpt lat="45.4718921" lon="9.2651085"><ele>111.0</ele><time>2026-04-19T12:32:33.007Z</time></trkpt><trkpt lat="45.471876" lon="9.2649504"><ele>111.0</ele><time>2026-04-19T12:32:35.007Z</time></trkpt><trkpt lat="45.4718549" lon="9.2647953"><ele>111.0</ele><time>2026-04-19T12:32:37.007Z</time></trkpt><trkpt lat="45.4718379" lon="9.2646398"><ele>111.0</ele><time>2026-04-19T12:32:39.008Z</time></trkpt><trkpt lat="45.4718222" lon="9.2644847"><ele>111.0</ele><time>2026-04-19T12:32:41.008Z</time></trkpt><trkpt lat="45.4718071" lon="9.2643248"><ele>111.6</ele><time>2026-04-19T12:32:43.008Z</time></trkpt><trkpt lat="45.4717936" lon="9.2641672"><ele>112.19999999999999</ele><time>2026-04-19T12:32:45.007Z</time></trkpt><trkpt lat="45.4717756" lon="9.2640165"><ele>112.80000000000001</ele><time>2026-04-19T12:32:47.008Z</time></trkpt><trkpt lat="45.4717651" lon="9.2638582"><ele>113.4</ele><time>2026-04-19T12:32:49.007Z</time></trkpt><trkpt lat="45.4717466" lon="9.2637025"><ele>114.0</ele><time>2026-04-19T12:32:51.007Z</time></trkpt><trkpt lat="45.4717284" lon="9.2635488"><ele>114.0</ele><time>2026-04-19T12:32:53.007Z</time></trkpt><trkpt lat="45.4717154" lon="9.2633881"><ele>114.0</ele><time>2026-04-19T12:32:55.007Z</time></trkpt><trkpt lat="45.4717057" lon="9.2632341"><ele>114.0</ele><time>2026-04-19T12:32:57.007Z</time></trkpt><trkpt lat="45.4716903" lon="9.2630812"><ele>114.0</ele><time>2026-04-19T12:32:59.008Z</time></trkpt><trkpt lat="45.4716744" lon="9.2629239"><ele>114.0</ele><time>2026-04-19T12:33:01.008Z</time></trkpt><trkpt lat="45.4716631" lon="9.2627687"><ele>113.80000000000001</ele><time>2026-04-19T12:33:03.008Z</time></trkpt><trkpt lat="45.471642" lon="9.2626128"><ele>113.60000000000001</ele><time>2026-04-19T12:33:05.007Z</time></trkpt><trkpt lat="45.4716283" lon="9.2624533"><ele>113.4</ele><time>2026-04-19T12:33:07.007Z</time></trkpt><trkpt lat="45.4716112" lon="9.2622948"><ele>113.2</ele><time>2026-04-19T12:33:09.007Z</time></trkpt><trkpt lat="45.4715952" lon="9.2621381"><ele>113.0</ele><time>2026-04-19T12:33:11.007Z</time></trkpt><trkpt lat="45.4715845" lon="9.261983"><ele>113.0</ele><time>2026-04-19T12:33:13.008Z</time></trkpt><trkpt lat="45.4715708" lon="9.2618301"><ele>113.00000000000001</ele><time>2026-04-19T12:33:15.007Z</time></trkpt><trkpt lat="45.4715566" lon="9.2616807"><ele>113.00000000000001</ele><time>2026-04-19T12:33:17.007Z</time></trkpt><trkpt lat="45.4715386" lon="9.2615203"><ele>113.0</ele><time>2026-04-19T12:33:19.008Z</time></trkpt><trkpt lat="45.4715235" lon="9.2613598"><ele>113.0</ele><time>2026-04-19T12:33:21.008Z</time></trkpt><trkpt lat="45.4715103" lon="9.261201"><ele>113.0</ele><time>2026-04-19T12:33:23.008Z</time></trkpt><trkpt lat="45.4715036" lon="9.2610387"><ele>113.0</ele><time>2026-04-19T12:33:25.008Z</time></trkpt><trkpt lat="45.4714981" lon="9.2608802"><ele>113.0</ele><time>2026-04-19T12:33:27.008Z</time></trkpt><trkpt lat="45.4714872" lon="9.2607186"><ele>113.0</ele><time>2026-04-19T12:33:29.008Z</time></trkpt><trkpt lat="45.4714837" lon="9.2605606"><ele>113.0</ele><time>2026-04-19T12:33:31.008Z</time></trkpt><trkpt lat="45.4714763" lon="9.2604056"><ele>113.00000000000001</ele><time>2026-04-19T12:33:33.008Z</time></trkpt><trkpt lat="45.4714723" lon="9.2602469"><ele>113.00000000000001</ele><time>2026-04-19T12:33:35.007Z</time></trkpt><trkpt lat="45.4714673" lon="9.2600832"><ele>113.0</ele><time>2026-04-19T12:33:37.007Z</time></trkpt><trkpt lat="45.4714601" lon="9.2599286"><ele>113.0</ele><time>2026-04-19T12:33:39.008Z</time></trkpt><trkpt lat="45.4714508" lon="9.2597689"><ele>113.0</ele><time>2026-04-19T12:33:41.008Z</time></trkpt><trkpt lat="45.4714431" lon="9.2596077"><ele>113.0</ele><time>2026-04-19T12:33:43.007Z</time></trkpt><trkpt lat="45.4714352" lon="9.2594506"><ele>113.0</ele><time>2026-04-19T12:33:45.007Z</time></trkpt><trkpt lat="45.4714246" lon="9.2592882"><ele>113.0</ele><time>2026-04-19T12:33:47.007Z</time></trkpt><trkpt lat="45.471409" lon="9.25913"><ele>113.0</ele><time>2026-04-19T12:33:49.008Z</time></trkpt><trkpt lat="45.4713886" lon="9.2589758"><ele>113.00000000000001</ele><time>2026-04-19T12:33:51.008Z</time></trkpt><trkpt lat="45.4713691" lon="9.2588231"><ele>113.00000000000001</ele><time>2026-04-19T12:33:53.008Z</time></trkpt><trkpt lat="45.4713544" lon="9.2586705"><ele>113.0</ele><time>2026-04-19T12:33:55.008Z</time></trkpt><trkpt lat="45.4713391" lon="9.258513"><ele>113.0</ele><time>2026-04-19T12:33:57.007Z</time></trkpt><trkpt lat="45.4713168" lon="9.2583576"><ele>113.2</ele><time>2026-04-19T12:33:59.008Z</time></trkpt><trkpt lat="45.4713043" lon="9.2582077"><ele>113.4</ele><time>2026-04-19T12:34:01.008Z</time></trkpt><trkpt lat="45.4712855" lon="9.2580568"><ele>113.60000000000001</ele><time>2026-04-19T12:34:03.008Z</time></trkpt><trkpt lat="45.4712639" lon="9.2578977"><ele>113.80000000000001</ele><time>2026-04-19T12:34:05.007Z</time></trkpt><trkpt lat="45.4712458" lon="9.2577406"><ele>114.0</ele><time>2026-04-19T12:34:07.008Z</time></trkpt><trkpt lat="45.4712242" lon="9.2575844"><ele>113.75</ele><time>2026-04-19T12:34:09.007Z</time></trkpt><trkpt lat="45.4712076" lon="9.2574187"><ele>113.5</ele><time>2026-04-19T12:34:11.007Z</time></trkpt><trkpt lat="45.4711844" lon="9.2572579"><ele>113.25</ele><time>2026-04-19T12:34:13.008Z</time></trkpt><trkpt lat="45.4711659" lon="9.2571009"><ele>113.0</ele><time>2026-04-19T12:34:15.007Z</time></trkpt><trkpt lat="45.4711498" lon="9.2569466"><ele>113.0</ele><time>2026-04-19T12:34:17.008Z</time></trkpt><trkpt lat="45.4711277" lon="9.2567894"><ele>113.00000000000001</ele><time>2026-04-19T12:34:19.007Z</time></trkpt><trkpt lat="45.4711096" lon="9.2566435"><ele>113.00000000000001</ele><time>2026-04-19T12:34:21.007Z</time></trkpt><trkpt lat="45.4710989" lon="9.2565182"><ele>113.0</ele><time>2026-04-19T12:34:23.007Z</time></trkpt><trkpt lat="45.471081" lon="9.2564087"><ele>113.0</ele><time>2026-04-19T12:34:26.007Z</time></trkpt><trkpt lat="45.4710106" lon="9.2563708"><ele>113.16666666666666</ele><time>2026-04-19T12:34:32.008Z</time></trkpt><trkpt lat="45.4709829" lon="9.2562882"><ele>113.33333333333333</ele><time>2026-04-19T12:34:34.007Z</time></trkpt><trkpt lat="45.4709625" lon="9.2561647"><ele>113.5</ele><time>2026-04-19T12:34:36.008Z</time></trkpt><trkpt lat="45.4709543" lon="9.2560376"><ele>113.66666666666666</ele><time>2026-04-19T12:34:38.008Z</time></trkpt><trkpt lat="45.4709272" lon="9.2559193"><ele>113.83333333333333</ele><time>2026-04-19T12:34:40.008Z</time></trkpt><trkpt lat="45.4708546" lon="9.2558536"><ele>114.0</ele><time>2026-04-19T12:34:42.008Z</time></trkpt><trkpt lat="45.4707881" lon="9.2558665"><ele>114.0</ele><time>2026-04-19T12:34:43.007Z</time></trkpt><trkpt lat="45.4706836" lon="9.255879"><ele>114.0</ele><time>2026-04-19T12:34:45.007Z</time></trkpt><trkpt lat="45.4705861" lon="9.2558898"><ele>114.0</ele><time>2026-04-19T12:34:47.008Z</time></trkpt><trkpt lat="45.4704877" lon="9.2559089"><ele>114.0</ele><time>2026-04-19T12:34:49.007Z</time></trkpt><trkpt lat="45.470386" lon="9.2559268"><ele>114.0</ele><time>2026-04-19T12:34:51.007Z</time></trkpt><trkpt lat="45.4702876" lon="9.2559369"><ele>113.6</ele><time>2026-04-19T12:34:53.007Z</time></trkpt><trkpt lat="45.4701844" lon="9.255961"><ele>113.2</ele><time>2026-04-19T12:34:55.007Z</time></trkpt><trkpt lat="45.4700828" lon="9.2559831"><ele>112.79999999999998</ele><time>2026-04-19T12:34:57.008Z</time></trkpt><trkpt lat="45.4699797" lon="9.2560021"><ele>112.39999999999999</ele><time>2026-04-19T12:34:59.007Z</time></trkpt><trkpt lat="45.4698696" lon="9.2560222"><ele>112.0</ele><time>2026-04-19T12:35:01.008Z</time></trkpt><trkpt lat="45.469764" lon="9.2560313"><ele>112.0</ele><time>2026-04-19T12:35:03.007Z</time></trkpt><trkpt lat="45.469659" lon="9.2560496"><ele>111.99999999999999</ele><time>2026-04-19T12:35:05.008Z</time></trkpt><trkpt lat="45.4695524" lon="9.2560665"><ele>111.99999999999999</ele><time>2026-04-19T12:35:07.008Z</time></trkpt><trkpt lat="45.4694459" lon="9.2560779"><ele>112.0</ele><time>2026-04-19T12:35:09.008Z</time></trkpt><trkpt lat="45.4693351" lon="9.2560977"><ele>112.0</ele><time>2026-04-19T12:35:11.007Z</time></trkpt><trkpt lat="45.4692276" lon="9.2561148"><ele>112.19999999999999</ele><time>2026-04-19T12:35:13.007Z</time></trkpt><trkpt lat="45.4691237" lon="9.2561326"><ele>112.39999999999999</ele><time>2026-04-19T12:35:15.007Z</time></trkpt><trkpt lat="45.4690144" lon="9.2561588"><ele>112.60000000000001</ele><time>2026-04-19T12:35:17.007Z</time></trkpt><trkpt lat="45.4689063" lon="9.2561803"><ele>112.80000000000001</ele><time>2026-04-19T12:35:19.007Z</time></trkpt><trkpt lat="45.4687939" lon="9.256194"><ele>113.0</ele><time>2026-04-19T12:35:21.007Z</time></trkpt><trkpt lat="45.4686796" lon="9.2562053"><ele>113.0</ele><time>2026-04-19T12:35:23.008Z</time></trkpt><trkpt lat="45.4685715" lon="9.2562261"><ele>113.00000000000001</ele><time>2026-04-19T12:35:25.008Z</time></trkpt><trkpt lat="45.4684704" lon="9.2562435"><ele>113.00000000000001</ele><time>2026-04-19T12:35:27.007Z</time></trkpt><trkpt lat="45.4683594" lon="9.2562576"><ele>113.0</ele><time>2026-04-19T12:35:29.007Z</time></trkpt><trkpt lat="45.4682512" lon="9.2562709"><ele>113.0</ele><time>2026-04-19T12:35:31.008Z</time></trkpt><trkpt lat="45.4681466" lon="9.2563003"><ele>113.0</ele><time>2026-04-19T12:35:33.007Z</time></trkpt><trkpt lat="45.4680439" lon="9.2563193"><ele>113.00000000000001</ele><time>2026-04-19T12:35:35.008Z</time></trkpt><trkpt lat="45.467941" lon="9.2563376"><ele>113.00000000000001</ele><time>2026-04-19T12:35:37.008Z</time></trkpt><trkpt lat="45.4678303" lon="9.2563625"><ele>113.0</ele><time>2026-04-19T12:35:39.007Z</time></trkpt><trkpt lat="45.4677376" lon="9.2563787"><ele>113.0</ele><time>2026-04-19T12:35:41.008Z</time></trkpt><trkpt lat="45.467635" lon="9.2563813"><ele>112.4</ele><time>2026-04-19T12:35:43.007Z</time></trkpt><trkpt lat="45.4675262" lon="9.2564023"><ele>111.80000000000001</ele><time>2026-04-19T12:35:45.007Z</time></trkpt><trkpt lat="45.4674206" lon="9.2564191"><ele>111.2</ele><time>2026-04-19T12:35:47.007Z</time></trkpt><trkpt lat="45.4673189" lon="9.2564333"><ele>110.6</ele><time>2026-04-19T12:35:49.007Z</time></trkpt><trkpt lat="45.4672157" lon="9.2564394"><ele>110.0</ele><time>2026-04-19T12:35:51.007Z</time></trkpt><trkpt lat="45.4671136" lon="9.2564608"><ele>111.0</ele><time>2026-04-19T12:35:53.007Z</time></trkpt><trkpt lat="45.4670091" lon="9.2564906"><ele>112.0</ele><time>2026-04-19T12:35:55.008Z</time></trkpt><trkpt lat="45.4668984" lon="9.2565146"><ele>113.0</ele><time>2026-04-19T12:35:57.008Z</time></trkpt><trkpt lat="45.4667986" lon="9.2565206"><ele>114.0</ele><time>2026-04-19T12:35:59.008Z</time></trkpt><trkpt lat="45.4666888" lon="9.2565429"><ele>115.0</ele><time>2026-04-19T12:36:01.008Z</time></trkpt><trkpt lat="45.466586" lon="9.2565561"><ele>115.0</ele><time>2026-04-19T12:36:03.008Z</time></trkpt><trkpt lat="45.466491" lon="9.2565796"><ele>115.0</ele><time>2026-04-19T12:36:05.008Z</time></trkpt><trkpt lat="45.4663817" lon="9.2565918"><ele>115.0</ele><time>2026-04-19T12:36:07.007Z</time></trkpt><trkpt lat="45.4662832" lon="9.2566023"><ele>115.0</ele><time>2026-04-19T12:36:09.007Z</time></trkpt><trkpt lat="45.4661823" lon="9.2566181"><ele>115.0</ele><time>2026-04-19T12:36:11.007Z</time></trkpt><trkpt lat="45.4660777" lon="9.2566388"><ele>114.2</ele><time>2026-04-19T12:36:13.007Z</time></trkpt><trkpt lat="45.4659819" lon="9.256633"><ele>113.4</ele><time>2026-04-19T12:36:15.008Z</time></trkpt><trkpt lat="45.4659173" lon="9.2565144"><ele>112.6</ele><time>2026-04-19T12:36:17.007Z</time></trkpt><trkpt lat="45.4658675" lon="9.2563768"><ele>111.8</ele><time>2026-04-19T12:36:19.008Z</time></trkpt><trkpt lat="45.4658326" lon="9.2562299"><ele>111.0</ele><time>2026-04-19T12:36:21.008Z</time></trkpt><trkpt lat="45.4658169" lon="9.2560745"><ele>110.6</ele><time>2026-04-19T12:36:23.008Z</time></trkpt><trkpt lat="45.4658032" lon="9.2559201"><ele>110.19999999999999</ele><time>2026-04-19T12:36:25.008Z</time></trkpt><trkpt lat="45.4657927" lon="9.2557657"><ele>109.80000000000001</ele><time>2026-04-19T12:36:27.007Z</time></trkpt><trkpt lat="45.4657756" lon="9.2556151"><ele>109.4</ele><time>2026-04-19T12:36:29.008Z</time></trkpt><trkpt lat="45.4657517" lon="9.2554625"><ele>109.0</ele><time>2026-04-19T12:36:31.008Z</time></trkpt><trkpt lat="45.4657146" lon="9.2553188"><ele>108.80000000000001</ele><time>2026-04-19T12:36:33.007Z</time></trkpt><trkpt lat="45.4656715" lon="9.2551807"><ele>108.60000000000001</ele><time>2026-04-19T12:36:35.008Z</time></trkpt><trkpt lat="45.465616" lon="9.2550508"><ele>108.4</ele><time>2026-04-19T12:36:37.008Z</time></trkpt><trkpt lat="45.4655523" lon="9.254934"><ele>108.2</ele><time>2026-04-19T12:36:39.008Z</time></trkpt><trkpt lat="45.4654769" lon="9.2548183"><ele>108.0</ele><time>2026-04-19T12:36:41.008Z</time></trkpt><trkpt lat="45.4653969" lon="9.2547099"><ele>108.60000000000001</ele><time>2026-04-19T12:36:43.007Z</time></trkpt><trkpt lat="45.4653107" lon="9.2546183"><ele>109.20000000000002</ele><time>2026-04-19T12:36:45.008Z</time></trkpt><trkpt lat="45.465219" lon="9.2545266"><ele>109.8</ele><time>2026-04-19T12:36:47.008Z</time></trkpt><trkpt lat="45.4651203" lon="9.2544544"><ele>110.4</ele><time>2026-04-19T12:36:49.008Z</time></trkpt><trkpt lat="45.465017" lon="9.2543933"><ele>111.0</ele><time>2026-04-19T12:36:51.008Z</time></trkpt><trkpt lat="45.4649084" lon="9.2543514"><ele>111.0</ele><time>2026-04-19T12:36:53.007Z</time></trkpt><trkpt lat="45.4647983" lon="9.2543253"><ele>111.0</ele><time>2026-04-19T12:36:55.007Z</time></trkpt><trkpt lat="45.4646883" lon="9.254312"><ele>111.0</ele><time>2026-04-19T12:36:57.008Z</time></trkpt><trkpt lat="45.4645711" lon="9.2543167"><ele>111.0</ele><time>2026-04-19T12:36:59.007Z</time></trkpt><trkpt lat="45.4644582" lon="9.2543216"><ele>111.4</ele><time>2026-04-19T12:37:01.007Z</time></trkpt><trkpt lat="45.4643479" lon="9.2543332"><ele>111.8</ele><time>2026-04-19T12:37:03.007Z</time></trkpt><trkpt lat="45.4642373" lon="9.2543424"><ele>112.20000000000002</ele><time>2026-04-19T12:37:05.007Z</time></trkpt><trkpt lat="45.4641261" lon="9.254356"><ele>112.60000000000001</ele><time>2026-04-19T12:37:07.008Z</time></trkpt><trkpt lat="45.4640216" lon="9.2543647"><ele>113.0</ele><time>2026-04-19T12:37:09.008Z</time></trkpt><trkpt lat="45.4639177" lon="9.2543903"><ele>113.0</ele><time>2026-04-19T12:37:11.008Z</time></trkpt><trkpt lat="45.4638162" lon="9.2544195"><ele>113.00000000000001</ele><time>2026-04-19T12:37:13.007Z</time></trkpt><trkpt lat="45.4637234" lon="9.254484"><ele>113.00000000000001</ele><time>2026-04-19T12:37:15.008Z</time></trkpt><trkpt lat="45.4636455" lon="9.2545783"><ele>113.0</ele><time>2026-04-19T12:37:17.007Z</time></trkpt><trkpt lat="45.4635886" lon="9.2546908"><ele>113.0</ele><time>2026-04-19T12:37:19.008Z</time></trkpt><trkpt lat="45.46353" lon="9.2548067"><ele>112.4</ele><time>2026-04-19T12:37:21.008Z</time></trkpt><trkpt lat="45.4634923" lon="9.2549336"><ele>111.80000000000001</ele><time>2026-04-19T12:37:23.007Z</time></trkpt><trkpt lat="45.4634681" lon="9.255075"><ele>111.2</ele><time>2026-04-19T12:37:25.007Z</time></trkpt><trkpt lat="45.4634641" lon="9.2552207"><ele>110.6</ele><time>2026-04-19T12:37:27.008Z</time></trkpt><trkpt lat="45.4634778" lon="9.2553659"><ele>110.0</ele><time>2026-04-19T12:37:29.007Z</time></trkpt><trkpt lat="45.4634844" lon="9.2555101"><ele>109.6</ele><time>2026-04-19T12:37:31.008Z</time></trkpt><trkpt lat="45.4634979" lon="9.2556564"><ele>109.2</ele><time>2026-04-19T12:37:33.007Z</time></trkpt><trkpt lat="45.4635182" lon="9.2558024"><ele>108.80000000000001</ele><time>2026-04-19T12:37:35.008Z</time></trkpt><trkpt lat="45.46353" lon="9.2559467"><ele>108.4</ele><time>2026-04-19T12:37:37.007Z</time></trkpt><trkpt lat="45.4635398" lon="9.2560974"><ele>108.0</ele><time>2026-04-19T12:37:39.008Z</time></trkpt><trkpt lat="45.4635496" lon="9.2562424"><ele>108.0</ele><time>2026-04-19T12:37:41.008Z</time></trkpt><trkpt lat="45.4635657" lon="9.256386"><ele>108.00000000000001</ele><time>2026-04-19T12:37:43.007Z</time></trkpt><trkpt lat="45.4635773" lon="9.2565264"><ele>108.00000000000001</ele><time>2026-04-19T12:37:45.008Z</time></trkpt><trkpt lat="45.4635859" lon="9.2566668"><ele>108.0</ele><time>2026-04-19T12:37:47.007Z</time></trkpt><trkpt lat="45.4635962" lon="9.2568017"><ele>108.0</ele><time>2026-04-19T12:37:49.008Z</time></trkpt><trkpt lat="45.4636002" lon="9.2569413"><ele>108.4</ele><time>2026-04-19T12:37:51.007Z</time></trkpt><trkpt lat="45.4635525" lon="9.2570437"><ele>108.80000000000001</ele><time>2026-04-19T12:37:53.008Z</time></trkpt><trkpt lat="45.4634587" lon="9.2570672"><ele>109.2</ele><time>2026-04-19T12:37:55.008Z</time></trkpt><trkpt lat="45.4633606" lon="9.2570815"><ele>109.6</ele><time>2026-04-19T12:37:57.007Z</time></trkpt><trkpt lat="45.4632777" lon="9.2571426"><ele>110.0</ele><time>2026-04-19T12:37:59.008Z</time></trkpt><trkpt lat="45.463222" lon="9.25725"><ele>110.66666666666666</ele><time>2026-04-19T12:38:01.008Z</time></trkpt><trkpt lat="45.4631613" lon="9.2573543"><ele>111.33333333333333</ele><time>2026-04-19T12:38:03.008Z</time></trkpt><trkpt lat="45.4631185" lon="9.2574687"><ele>112.0</ele><time>2026-04-19T12:38:05.007Z</time></trkpt><trkpt lat="45.4631018" lon="9.257594"><ele>112.66666666666666</ele><time>2026-04-19T12:38:07.008Z</time></trkpt><trkpt lat="45.4631051" lon="9.2577117"><ele>113.33333333333333</ele><time>2026-04-19T12:38:09.008Z</time></trkpt><trkpt lat="45.4631032" lon="9.2578143"><ele>114.0</ele><time>2026-04-19T12:38:11.008Z</time></trkpt><trkpt lat="45.4630748" lon="9.2579039"><ele>114.0</ele><time>2026-04-19T12:38:13.007Z</time></trkpt><trkpt lat="45.463022" lon="9.2579647"><ele>114.0</ele><time>2026-04-19T12:38:15.008Z</time></trkpt><trkpt lat="45.4629621" lon="9.2580117"><ele>114.0</ele><time>2026-04-19T12:38:17.007Z</time></trkpt><trkpt lat="45.4628964" lon="9.2580416"><ele>114.0</ele><time>2026-04-19T12:38:19.007Z</time></trkpt><trkpt lat="45.4628297" lon="9.2580698"><ele>114.0</ele><time>2026-04-19T12:38:21.008Z</time></trkpt><trkpt lat="45.4627423" lon="9.258088"><ele>114.0</ele><time>2026-04-19T12:38:24.008Z</time></trkpt><trkpt lat="45.4626543" lon="9.2581072"><ele>113.33333333333333</ele><time>2026-04-19T12:38:27.008Z</time></trkpt><trkpt lat="45.4625898" lon="9.2581138"><ele>112.66666666666666</ele><time>2026-04-19T12:38:29.008Z</time></trkpt><trkpt lat="45.4625226" lon="9.2581078"><ele>112.0</ele><time>2026-04-19T12:38:31.007Z</time></trkpt><trkpt lat="45.4624349" lon="9.2580809"><ele>111.33333333333333</ele><time>2026-04-19T12:38:34.007Z</time></trkpt><trkpt lat="45.4623535" lon="9.2580398"><ele>110.66666666666666</ele><time>2026-04-19T12:38:37.007Z</time></trkpt><trkpt lat="45.4622746" lon="9.2579933"><ele>110.0</ele><time>2026-04-19T12:38:40.008Z</time></trkpt><trkpt lat="45.4622" lon="9.2579423"><ele>109.99999999999999</ele><time>2026-04-19T12:38:43.008Z</time></trkpt><trkpt lat="45.4621223" lon="9.2578942"><ele>110.0</ele><time>2026-04-19T12:38:46.007Z</time></trkpt><trkpt lat="45.4620462" lon="9.2578473"><ele>110.0</ele><time>2026-04-19T12:38:49.008Z</time></trkpt><trkpt lat="45.4619636" lon="9.257807"><ele>110.0</ele><time>2026-04-19T12:38:52.008Z</time></trkpt><trkpt lat="45.4619063" lon="9.2577667"><ele>109.99999999999999</ele><time>2026-04-19T12:38:54.008Z</time></trkpt><trkpt lat="45.4618471" lon="9.2577292"><ele>110.0</ele><time>2026-04-19T12:38:56.007Z</time></trkpt><trkpt lat="45.4617849" lon="9.2576825"><ele>110.0</ele><time>2026-04-19T12:38:58.008Z</time></trkpt><trkpt lat="45.4617043" lon="9.2576482"><ele>110.0</ele><time>2026-04-19T12:39:00.008Z</time></trkpt><trkpt lat="45.4616711" lon="9.257526"><ele>110.0</ele><time>2026-04-19T12:39:02.008Z</time></trkpt><trkpt lat="45.4616741" lon="9.2573889"><ele>110.0</ele><time>2026-04-19T12:39:04.008Z</time></trkpt><trkpt lat="45.4616941" lon="9.2572235"><ele>110.0</ele><time>2026-04-19T12:39:06.008Z</time></trkpt><trkpt lat="45.4617049" lon="9.2571327"><ele>109.99999999999999</ele><time>2026-04-19T12:39:07.007Z</time></trkpt><trkpt lat="45.461717" lon="9.2570434"><ele>110.0</ele><time>2026-04-19T12:39:08.007Z</time></trkpt><trkpt lat="45.4617158" lon="9.2569466"><ele>110.0</ele><time>2026-04-19T12:39:09.008Z</time></trkpt><trkpt lat="45.4617135" lon="9.2568533"><ele>110.0</ele><time>2026-04-19T12:39:10.008Z</time></trkpt><trkpt lat="45.4617165" lon="9.256751"><ele>110.0</ele><time>2026-04-19T12:39:11.008Z</time></trkpt><trkpt lat="45.4617182" lon="9.256649"><ele>109.99999999999999</ele><time>2026-04-19T12:39:12.007Z</time></trkpt><trkpt lat="45.4617221" lon="9.2565487"><ele>110.0</ele><time>2026-04-19T12:39:13.008Z</time></trkpt><trkpt lat="45.4617435" lon="9.2564467"><ele>109.66666666666666</ele><time>2026-04-19T12:39:14.008Z</time></trkpt><trkpt lat="45.4617732" lon="9.2563508"><ele>109.33333333333333</ele><time>2026-04-19T12:39:15.008Z</time></trkpt><trkpt lat="45.4617878" lon="9.2562598"><ele>109.0</ele><time>2026-04-19T12:39:16.007Z</time></trkpt><trkpt lat="45.4617971" lon="9.2561224"><ele>108.66666666666666</ele><time>2026-04-19T12:39:18.007Z</time></trkpt><trkpt lat="45.4617944" lon="9.2560077"><ele>108.33333333333333</ele><time>2026-04-19T12:39:20.007Z</time></trkpt><trkpt lat="45.4617883" lon="9.2558957"><ele>108.0</ele><time>2026-04-19T12:39:22.007Z</time></trkpt><trkpt lat="45.4617809" lon="9.2558008"><ele>108.0</ele><time>2026-04-19T12:39:24.008Z</time></trkpt><trkpt lat="45.4617804" lon="9.2556987"><ele>108.0</ele><time>2026-04-19T12:39:26.008Z</time></trkpt><trkpt lat="45.4617786" lon="9.2555859"><ele>108.0</ele><time>2026-04-19T12:39:28.008Z</time></trkpt><trkpt lat="45.4617779" lon="9.2554616"><ele>108.0</ele><time>2026-04-19T12:39:30.007Z</time></trkpt><trkpt lat="45.4617723" lon="9.2553242"><ele>108.0</ele><time>2026-04-19T12:39:32.008Z</time></trkpt><trkpt lat="45.4617741" lon="9.2551881"><ele>108.0</ele><time>2026-04-19T12:39:34.008Z</time></trkpt><trkpt lat="45.4617769" lon="9.2550595"><ele>108.16666666666667</ele><time>2026-04-19T12:39:36.008Z</time></trkpt><trkpt lat="45.4617807" lon="9.2549255"><ele>108.33333333333334</ele><time>2026-04-19T12:39:38.007Z</time></trkpt><trkpt lat="45.4617689" lon="9.2547966"><ele>108.5</ele><time>2026-04-19T12:39:40.007Z</time></trkpt><trkpt lat="45.4617393" lon="9.2546768"><ele>108.66666666666667</ele><time>2026-04-19T12:39:42.007Z</time></trkpt><trkpt lat="45.4616897" lon="9.2545863"><ele>108.83333333333334</ele><time>2026-04-19T12:39:44.007Z</time></trkpt><trkpt lat="45.4616241" lon="9.2545365"><ele>109.0</ele><time>2026-04-19T12:39:46.008Z</time></trkpt><trkpt lat="45.4615616" lon="9.2544586"><ele>109.6</ele><time>2026-04-19T12:39:48.008Z</time></trkpt><trkpt lat="45.461478" lon="9.2544114"><ele>110.2</ele><time>2026-04-19T12:39:50.008Z</time></trkpt><trkpt lat="45.4613842" lon="9.2543832"><ele>110.79999999999998</ele><time>2026-04-19T12:39:52.008Z</time></trkpt><trkpt lat="45.4612801" lon="9.2543688"><ele>111.39999999999999</ele><time>2026-04-19T12:39:54.008Z</time></trkpt><trkpt lat="45.4611773" lon="9.2543775"><ele>112.0</ele><time>2026-04-19T12:39:56.008Z</time></trkpt><trkpt lat="45.4610743" lon="9.2543922"><ele>112.0</ele><time>2026-04-19T12:39:58.007Z</time></trkpt><trkpt lat="45.4609723" lon="9.2544133"><ele>111.99999999999999</ele><time>2026-04-19T12:40:00.008Z</time></trkpt><trkpt lat="45.4608653" lon="9.2544438"><ele>111.99999999999999</ele><time>2026-04-19T12:40:02.007Z</time></trkpt><trkpt lat="45.4607644" lon="9.2544839"><ele>112.0</ele><time>2026-04-19T12:40:04.007Z</time></trkpt><trkpt lat="45.4606649" lon="9.2545392"><ele>112.0</ele><time>2026-04-19T12:40:06.008Z</time></trkpt><trkpt lat="45.460568" lon="9.2546045"><ele>112.0</ele><time>2026-04-19T12:40:08.007Z</time></trkpt><trkpt lat="45.4604735" lon="9.2546692"><ele>111.99999999999999</ele><time>2026-04-19T12:40:10.008Z</time></trkpt><trkpt lat="45.4603814" lon="9.25474"><ele>111.99999999999999</ele><time>2026-04-19T12:40:12.007Z</time></trkpt><trkpt lat="45.4602787" lon="9.2548053"><ele>112.0</ele><time>2026-04-19T12:40:14.008Z</time></trkpt><trkpt lat="45.4601796" lon="9.2548709"><ele>112.0</ele><time>2026-04-19T12:40:16.008Z</time></trkpt><trkpt lat="45.4600794" lon="9.2549331"><ele>112.19999999999999</ele><time>2026-04-19T12:40:18.007Z</time></trkpt><trkpt lat="45.4599837" lon="9.2549982"><ele>112.39999999999999</ele><time>2026-04-19T12:40:20.007Z</time></trkpt><trkpt lat="45.459888" lon="9.2550654"><ele>112.60000000000001</ele><time>2026-04-19T12:40:22.007Z</time></trkpt><trkpt lat="45.4597891" lon="9.255131"><ele>112.80000000000001</ele><time>2026-04-19T12:40:24.007Z</time></trkpt><trkpt lat="45.4596907" lon="9.2551997"><ele>113.0</ele><time>2026-04-19T12:40:26.008Z</time></trkpt><trkpt lat="45.4595922" lon="9.2552699"><ele>112.0</ele><time>2026-04-19T12:40:28.007Z</time></trkpt><trkpt lat="45.4594974" lon="9.2553342"><ele>111.00000000000001</ele><time>2026-04-19T12:40:30.008Z</time></trkpt><trkpt lat="45.459399" lon="9.255399"><ele>110.00000000000001</ele><time>2026-04-19T12:40:32.008Z</time></trkpt><trkpt lat="45.459299" lon="9.2554651"><ele>109.0</ele><time>2026-04-19T12:40:34.007Z</time></trkpt><trkpt lat="45.459201" lon="9.2555352"><ele>108.0</ele><time>2026-04-19T12:40:36.007Z</time></trkpt><trkpt lat="45.4590997" lon="9.2556081"><ele>107.75</ele><time>2026-04-19T12:40:38.007Z</time></trkpt><trkpt lat="45.4589986" lon="9.2556702"><ele>107.5</ele><time>2026-04-19T12:40:40.008Z</time></trkpt><trkpt lat="45.4588956" lon="9.2557464"><ele>107.25</ele><time>2026-04-19T12:40:42.008Z</time></trkpt><trkpt lat="45.4587996" lon="9.2558244"><ele>107.0</ele><time>2026-04-19T12:40:44.008Z</time></trkpt><trkpt lat="45.4587039" lon="9.2559099"><ele>107.0</ele><time>2026-04-19T12:40:46.008Z</time></trkpt><trkpt lat="45.4586171" lon="9.2560076"><ele>106.99999999999999</ele><time>2026-04-19T12:40:48.007Z</time></trkpt><trkpt lat="45.4585385" lon="9.2561208"><ele>106.99999999999999</ele><time>2026-04-19T12:40:50.007Z</time></trkpt><trkpt lat="45.4584707" lon="9.2562479"><ele>107.0</ele><time>2026-04-19T12:40:52.007Z</time></trkpt><trkpt lat="45.4584031" lon="9.2563807"><ele>107.0</ele><time>2026-04-19T12:40:54.007Z</time></trkpt><trkpt lat="45.4583384" lon="9.2565115"><ele>107.39999999999999</ele><time>2026-04-19T12:40:56.007Z</time></trkpt><trkpt lat="45.4582746" lon="9.2566389"><ele>107.79999999999998</ele><time>2026-04-19T12:40:58.008Z</time></trkpt><trkpt lat="45.4582034" lon="9.2567652"><ele>108.2</ele><time>2026-04-19T12:41:00.008Z</time></trkpt><trkpt lat="45.4581389" lon="9.2568881"><ele>108.6</ele><time>2026-04-19T12:41:02.008Z</time></trkpt><trkpt lat="45.4580752" lon="9.2570171"><ele>109.0</ele><time>2026-04-19T12:41:04.008Z</time></trkpt><trkpt lat="45.4580074" lon="9.2571428"><ele>109.6</ele><time>2026-04-19T12:41:06.008Z</time></trkpt><trkpt lat="45.4579356" lon="9.2572619"><ele>110.2</ele><time>2026-04-19T12:41:08.007Z</time></trkpt><trkpt lat="45.4578588" lon="9.2573766"><ele>110.79999999999998</ele><time>2026-04-19T12:41:10.008Z</time></trkpt><trkpt lat="45.4577792" lon="9.2574883"><ele>111.39999999999999</ele><time>2026-04-19T12:41:12.008Z</time></trkpt><trkpt lat="45.457691" lon="9.2575873"><ele>112.0</ele><time>2026-04-19T12:41:14.007Z</time></trkpt><trkpt lat="45.4575926" lon="9.2576643"><ele>112.19999999999999</ele><time>2026-04-19T12:41:16.007Z</time></trkpt><trkpt lat="45.4574912" lon="9.2577341"><ele>112.39999999999999</ele><time>2026-04-19T12:41:18.008Z</time></trkpt><trkpt lat="45.4573888" lon="9.2578036"><ele>112.60000000000001</ele><time>2026-04-19T12:41:20.008Z</time></trkpt><trkpt lat="45.4572887" lon="9.257869"><ele>112.80000000000001</ele><time>2026-04-19T12:41:22.007Z</time></trkpt><trkpt lat="45.4571896" lon="9.2579337"><ele>113.0</ele><time>2026-04-19T12:41:24.008Z</time></trkpt><trkpt lat="45.4570908" lon="9.2579957"><ele>112.80000000000001</ele><time>2026-04-19T12:41:26.007Z</time></trkpt><trkpt lat="45.456992" lon="9.2580602"><ele>112.60000000000001</ele><time>2026-04-19T12:41:28.008Z</time></trkpt><trkpt lat="45.4568961" lon="9.2581261"><ele>112.39999999999999</ele><time>2026-04-19T12:41:30.008Z</time></trkpt><trkpt lat="45.456798" lon="9.2581917"><ele>112.19999999999999</ele><time>2026-04-19T12:41:32.008Z</time></trkpt><trkpt lat="45.4566915" lon="9.2582538"><ele>112.0</ele><time>2026-04-19T12:41:34.008Z</time></trkpt><trkpt lat="45.4565881" lon="9.2583244"><ele>112.0</ele><time>2026-04-19T12:41:36.007Z</time></trkpt><trkpt lat="45.4564851" lon="9.2584004"><ele>112.0</ele><time>2026-04-19T12:41:38.008Z</time></trkpt><trkpt lat="45.4563812" lon="9.2584729"><ele>112.0</ele><time>2026-04-19T12:41:40.007Z</time></trkpt><trkpt lat="45.4562746" lon="9.2585404"><ele>112.0</ele><time>2026-04-19T12:41:42.007Z</time></trkpt><trkpt lat="45.4561722" lon="9.2586171"><ele>112.6</ele><time>2026-04-19T12:41:44.008Z</time></trkpt><trkpt lat="45.4560705" lon="9.2586854"><ele>113.19999999999999</ele><time>2026-04-19T12:41:46.008Z</time></trkpt><trkpt lat="45.4559716" lon="9.258751"><ele>113.8</ele><time>2026-04-19T12:41:48.008Z</time></trkpt><trkpt lat="45.4558702" lon="9.2588177"><ele>114.4</ele><time>2026-04-19T12:41:50.008Z</time></trkpt><trkpt lat="45.4557672" lon="9.258881"><ele>115.0</ele><time>2026-04-19T12:41:52.007Z</time></trkpt><trkpt lat="45.4556628" lon="9.2589473"><ele>115.0</ele><time>2026-04-19T12:41:54.008Z</time></trkpt><trkpt lat="45.4555593" lon="9.2590121"><ele>115.0</ele><time>2026-04-19T12:41:56.008Z</time></trkpt><trkpt lat="45.4554575" lon="9.2590777"><ele>115.0</ele><time>2026-04-19T12:41:58.007Z</time></trkpt><trkpt lat="45.4553557" lon="9.2591435"><ele>115.0</ele><time>2026-04-19T12:42:00.008Z</time></trkpt><trkpt lat="45.4552536" lon="9.2592194"><ele>115.0</ele><time>2026-04-19T12:42:02.007Z</time></trkpt><trkpt lat="45.4551537" lon="9.2592932"><ele>115.0</ele><time>2026-04-19T12:42:04.008Z</time></trkpt><trkpt lat="45.4550556" lon="9.2593754"><ele>115.0</ele><time>2026-04-19T12:42:06.008Z</time></trkpt><trkpt lat="45.4549544" lon="9.2594554"><ele>115.0</ele><time>2026-04-19T12:42:08.008Z</time></trkpt><trkpt lat="45.4548526" lon="9.2595164"><ele>115.0</ele><time>2026-04-19T12:42:10.007Z</time></trkpt><trkpt lat="45.4547463" lon="9.2595047"><ele>115.0</ele><time>2026-04-19T12:42:12.007Z</time></trkpt><trkpt lat="45.4546948" lon="9.2593767"><ele>115.0</ele><time>2026-04-19T12:42:14.007Z</time></trkpt><trkpt lat="45.4546702" lon="9.2592398"><ele>115.0</ele><time>2026-04-19T12:42:16.007Z</time></trkpt><trkpt lat="45.45465" lon="9.2591036"><ele>115.0</ele><time>2026-04-19T12:42:18.007Z</time></trkpt><trkpt lat="45.4546281" lon="9.2589654"><ele>113.8</ele><time>2026-04-19T12:42:20.008Z</time></trkpt><trkpt lat="45.4546041" lon="9.2588294"><ele>112.6</ele><time>2026-04-19T12:42:22.007Z</time></trkpt><trkpt lat="45.4545829" lon="9.2586923"><ele>111.4</ele><time>2026-04-19T12:42:24.007Z</time></trkpt><trkpt lat="45.4545556" lon="9.2585596"><ele>110.2</ele><time>2026-04-19T12:42:26.007Z</time></trkpt><trkpt lat="45.4545214" lon="9.2584332"><ele>109.0</ele><time>2026-04-19T12:42:28.008Z</time></trkpt><trkpt lat="45.4544982" lon="9.2582849"><ele>109.0</ele><time>2026-04-19T12:42:30.008Z</time></trkpt><trkpt lat="45.4544712" lon="9.2581362"><ele>109.0</ele><time>2026-04-19T12:42:32.008Z</time></trkpt><trkpt lat="45.4544435" lon="9.2579894"><ele>109.0</ele><time>2026-04-19T12:42:34.007Z</time></trkpt><trkpt lat="45.4544169" lon="9.2578401"><ele>109.0</ele><time>2026-04-19T12:42:36.007Z</time></trkpt><trkpt lat="45.4543829" lon="9.2576888"><ele>109.0</ele><time>2026-04-19T12:42:38.008Z</time></trkpt><trkpt lat="45.4543596" lon="9.2575325"><ele>109.0</ele><time>2026-04-19T12:42:40.007Z</time></trkpt><trkpt lat="45.454338" lon="9.2573751"><ele>109.0</ele><time>2026-04-19T12:42:42.008Z</time></trkpt><trkpt lat="45.454311" lon="9.2572258"><ele>109.0</ele><time>2026-04-19T12:42:44.008Z</time></trkpt><trkpt lat="45.4542811" lon="9.2570782"><ele>109.0</ele><time>2026-04-19T12:42:46.008Z</time></trkpt><trkpt lat="45.4542556" lon="9.2569296"><ele>109.0</ele><time>2026-04-19T12:42:48.007Z</time></trkpt><trkpt lat="45.4542279" lon="9.2567798"><ele>109.0</ele><time>2026-04-19T12:42:50.008Z</time></trkpt><trkpt lat="45.4541971" lon="9.2566322"><ele>109.0</ele><time>2026-04-19T12:42:52.008Z</time></trkpt><trkpt lat="45.4541707" lon="9.2564795"><ele>109.0</ele><time>2026-04-19T12:42:54.007Z</time></trkpt><trkpt lat="45.4541423" lon="9.2563253"><ele>109.0</ele><time>2026-04-19T12:42:56.008Z</time></trkpt><trkpt lat="45.4541148" lon="9.2561699"><ele>109.0</ele><time>2026-04-19T12:42:58.007Z</time></trkpt><trkpt lat="45.4540879" lon="9.2560182"><ele>109.4</ele><time>2026-04-19T12:43:00.007Z</time></trkpt><trkpt lat="45.4540711" lon="9.2558602"><ele>109.80000000000001</ele><time>2026-04-19T12:43:02.008Z</time></trkpt><trkpt lat="45.4540494" lon="9.2557057"><ele>110.19999999999999</ele><time>2026-04-19T12:43:04.008Z</time></trkpt><trkpt lat="45.4540427" lon="9.2555526"><ele>110.6</ele><time>2026-04-19T12:43:06.008Z</time></trkpt><trkpt lat="45.4540007" lon="9.2554004"><ele>111.0</ele><time>2026-04-19T12:43:08.007Z</time></trkpt><trkpt lat="45.4539549" lon="9.2552674"><ele>111.0</ele><time>2026-04-19T12:43:10.008Z</time></trkpt><trkpt lat="45.4539027" lon="9.2551324"><ele>111.0</ele><time>2026-04-19T12:43:12.007Z</time></trkpt><trkpt lat="45.4538421" lon="9.255012"><ele>111.0</ele><time>2026-04-19T12:43:14.008Z</time></trkpt><trkpt lat="45.4537887" lon="9.2548973"><ele>111.0</ele><time>2026-04-19T12:43:16.008Z</time></trkpt><trkpt lat="45.4537103" lon="9.2547828"><ele>111.0</ele><time>2026-04-19T12:43:18.007Z</time></trkpt><trkpt lat="45.4536317" lon="9.2546784"><ele>111.0</ele><time>2026-04-19T12:43:20.007Z</time></trkpt><trkpt lat="45.4535509" lon="9.2545743"><ele>111.0</ele><time>2026-04-19T12:43:22.008Z</time></trkpt><trkpt lat="45.4534539" lon="9.2545296"><ele>111.0</ele><time>2026-04-19T12:43:24.008Z</time></trkpt><trkpt lat="45.4533565" lon="9.2544788"><ele>111.0</ele><time>2026-04-19T12:43:26.008Z</time></trkpt><trkpt lat="45.4532651" lon="9.254409"><ele>111.0</ele><time>2026-04-19T12:43:28.007Z</time></trkpt><trkpt lat="45.4532067" lon="9.2543045"><ele>111.0</ele><time>2026-04-19T12:43:30.008Z</time></trkpt><trkpt lat="45.4531353" lon="9.254193"><ele>111.0</ele><time>2026-04-19T12:43:32.008Z</time></trkpt><trkpt lat="45.453065" lon="9.2540771"><ele>111.0</ele><time>2026-04-19T12:43:34.007Z</time></trkpt><trkpt lat="45.4529927" lon="9.2539686"><ele>111.0</ele><time>2026-04-19T12:43:36.007Z</time></trkpt><trkpt lat="45.4529181" lon="9.2538648"><ele>111.0</ele><time>2026-04-19T12:43:38.008Z</time></trkpt><trkpt lat="45.4528532" lon="9.2537639"><ele>110.5</ele><time>2026-04-19T12:43:40.007Z</time></trkpt><trkpt lat="45.452783" lon="9.2536704"><ele>110.0</ele><time>2026-04-19T12:43:42.008Z</time></trkpt><trkpt lat="45.4527312" lon="9.2535941"><ele>109.5</ele><time>2026-04-19T12:43:44.007Z</time></trkpt><trkpt lat="45.452662" lon="9.2535875"><ele>109.0</ele><time>2026-04-19T12:43:46.007Z</time></trkpt><trkpt lat="45.4525852" lon="9.2536235"><ele>108.5</ele><time>2026-04-19T12:43:48.008Z</time></trkpt><trkpt lat="45.452499" lon="9.2536367"><ele>108.0</ele><time>2026-04-19T12:43:50.007Z</time></trkpt><trkpt lat="45.4524116" lon="9.2536689"><ele>108.0</ele><time>2026-04-19T12:43:52.007Z</time></trkpt><trkpt lat="45.4523279" lon="9.2537364"><ele>108.00000000000001</ele><time>2026-04-19T12:43:54.008Z</time></trkpt><trkpt lat="45.4522396" lon="9.2538013"><ele>108.00000000000001</ele><time>2026-04-19T12:43:56.007Z</time></trkpt><trkpt lat="45.4521526" lon="9.2538655"><ele>108.0</ele><time>2026-04-19T12:43:58.007Z</time></trkpt><trkpt lat="45.4520672" lon="9.2539371"><ele>108.0</ele><time>2026-04-19T12:44:00.008Z</time></trkpt><trkpt lat="45.4519787" lon="9.2540122"><ele>108.4</ele><time>2026-04-19T12:44:02.007Z</time></trkpt><trkpt lat="45.4518865" lon="9.2540866"><ele>108.80000000000001</ele><time>2026-04-19T12:44:04.007Z</time></trkpt><trkpt lat="45.4517935" lon="9.2541619"><ele>109.2</ele><time>2026-04-19T12:44:06.008Z</time></trkpt><trkpt lat="45.4517006" lon="9.2542352"><ele>109.6</ele><time>2026-04-19T12:44:08.007Z</time></trkpt><trkpt lat="45.4516075" lon="9.2543014"><ele>110.0</ele><time>2026-04-19T12:44:10.008Z</time></trkpt><trkpt lat="45.4515168" lon="9.2543739"><ele>110.0</ele><time>2026-04-19T12:44:12.007Z</time></trkpt><trkpt lat="45.4514236" lon="9.2544454"><ele>110.0</ele><time>2026-04-19T12:44:14.007Z</time></trkpt><trkpt lat="45.4513374" lon="9.2545183"><ele>110.0</ele><time>2026-04-19T12:44:16.008Z</time></trkpt><trkpt lat="45.4512476" lon="9.2545959"><ele>110.0</ele><time>2026-04-19T12:44:18.007Z</time></trkpt><trkpt lat="45.4511561" lon="9.2546671"><ele>110.0</ele><time>2026-04-19T12:44:20.008Z</time></trkpt><trkpt lat="45.4510662" lon="9.2547358"><ele>109.8</ele><time>2026-04-19T12:44:22.008Z</time></trkpt><trkpt lat="45.4509771" lon="9.2548099"><ele>109.6</ele><time>2026-04-19T12:44:24.007Z</time></trkpt><trkpt lat="45.4508906" lon="9.2548914"><ele>109.4</ele><time>2026-04-19T12:44:26.008Z</time></trkpt><trkpt lat="45.4508101" lon="9.2549675"><ele>109.2</ele><time>2026-04-19T12:44:28.007Z</time></trkpt><trkpt lat="45.45073" lon="9.2550557"><ele>109.0</ele><time>2026-04-19T12:44:30.007Z</time></trkpt><trkpt lat="45.4506478" lon="9.2551524"><ele>109.0</ele><time>2026-04-19T12:44:32.008Z</time></trkpt><trkpt lat="45.4505618" lon="9.2552274"><ele>109.0</ele><time>2026-04-19T12:44:34.007Z</time></trkpt><trkpt lat="45.450471" lon="9.2552952"><ele>109.0</ele><time>2026-04-19T12:44:36.007Z</time></trkpt><trkpt lat="45.4503799" lon="9.2553639"><ele>109.0</ele><time>2026-04-19T12:44:38.007Z</time></trkpt><trkpt lat="45.4502916" lon="9.2554413"><ele>109.0</ele><time>2026-04-19T12:44:40.008Z</time></trkpt><trkpt lat="45.4502121" lon="9.2555205"><ele>109.0</ele><time>2026-04-19T12:44:42.008Z</time></trkpt><trkpt lat="45.4501271" lon="9.2555842"><ele>109.0</ele><time>2026-04-19T12:44:44.007Z</time></trkpt><trkpt lat="45.4500405" lon="9.25565"><ele>109.0</ele><time>2026-04-19T12:44:46.007Z</time></trkpt><trkpt lat="45.4499549" lon="9.2557111"><ele>109.0</ele><time>2026-04-19T12:44:48.008Z</time></trkpt><trkpt lat="45.4498837" lon="9.2557769"><ele>109.0</ele><time>2026-04-19T12:44:50.007Z</time></trkpt><trkpt lat="45.4498409" lon="9.2558719"><ele>108.85714285714286</ele><time>2026-04-19T12:44:52.007Z</time></trkpt><trkpt lat="45.4498354" lon="9.255966"><ele>108.71428571428572</ele><time>2026-04-19T12:44:54.008Z</time></trkpt><trkpt lat="45.4499021" lon="9.2559594"><ele>108.57142857142857</ele><time>2026-04-19T12:45:01.008Z</time></trkpt><trkpt lat="45.449913" lon="9.2560521"><ele>108.42857142857143</ele><time>2026-04-19T12:48:13.008Z</time></trkpt><trkpt lat="45.4499756" lon="9.2561034"><ele>108.28571428571428</ele><time>2026-04-19T12:56:35.007Z</time></trkpt><trkpt lat="45.4500408" lon="9.2561346"><ele>108.14285714285714</ele><time>2026-04-19T12:56:42.007Z</time></trkpt><trkpt lat="45.4499787" lon="9.256107"><ele>108.0</ele><time>2026-04-19T12:56:56.962Z</time></trkpt><trkpt lat="45.4499167" lon="9.2560875"><ele>108.0</ele><time>2026-04-19T12:57:03.007Z</time></trkpt><trkpt lat="45.4498807" lon="9.2560078"><ele>108.0</ele><time>2026-04-19T12:57:10.008Z</time></trkpt><trkpt lat="45.4499522" lon="9.2559967"><ele>108.0</ele><time>2026-04-19T12:58:07.024Z</time></trkpt></trkseg><trkseg><trkpt lat="45.4522343" lon="9.2538778"><ele>111.0</ele><time>2026-04-19T13:11:54.999Z</time></trkpt><trkpt lat="45.453515" lon="9.254598"><ele>112.0</ele><time>2026-04-19T13:12:26.999Z</time></trkpt><trkpt lat="45.4541008" lon="9.2564072"><ele>109.0</ele><time>2026-04-19T13:12:53.999Z</time></trkpt><trkpt lat="45.4544341" lon="9.2582801"><ele>108.0</ele><time>2026-04-19T13:13:20Z</time></trkpt><trkpt lat="45.4539651" lon="9.2600923"><ele>108.0</ele><time>2026-04-19T13:13:51.999Z</time></trkpt><trkpt lat="45.4527188" lon="9.2609239"><ele>106.0</ele><time>2026-04-19T13:14:19Z</time></trkpt><trkpt lat="45.4518529" lon="9.2624051"><ele>109.0</ele><time>2026-04-19T13:14:46Z</time></trkpt><trkpt lat="45.4516358" lon="9.264302"><ele>105.0</ele><time>2026-04-19T13:15:11.993Z</time></trkpt><trkpt lat="45.4512317" lon="9.2661919"><ele>107.0</ele><time>2026-04-19T13:15:39.001Z</time></trkpt><trkpt lat="45.4501894" lon="9.2675133"><ele>103.0</ele><time>2026-04-19T13:16:06Z</time></trkpt><trkpt lat="45.4492455" lon="9.268981"><ele>104.0</ele><time>2026-04-19T13:16:34.003Z</time></trkpt><trkpt lat="45.449154" lon="9.2709484"><ele>105.0</ele><time>2026-04-19T13:17:01.004Z</time></trkpt><trkpt lat="45.4483112" lon="9.2724485"><ele>107.0</ele><time>2026-04-19T13:17:36.004Z</time></trkpt><trkpt lat="45.4469221" lon="9.2722925"><ele>107.0</ele><time>2026-04-19T13:18:01.003Z</time></trkpt><trkpt lat="45.4455419" lon="9.2722246"><ele>103.0</ele><time>2026-04-19T13:18:29.004Z</time></trkpt><trkpt lat="45.4441957" lon="9.2724863"><ele>105.0</ele><time>2026-04-19T13:18:58.004Z</time></trkpt><trkpt lat="45.4428491" lon="9.2730401"><ele>103.0</ele><time>2026-04-19T13:19:24.004Z</time></trkpt><trkpt lat="45.4414687" lon="9.2733429"><ele>100.0</ele><time>2026-04-19T13:19:50.003Z</time></trkpt><trkpt lat="45.4400943" lon="9.2735205"><ele>104.0</ele><time>2026-04-19T13:20:15.003Z</time></trkpt><trkpt lat="45.4387079" lon="9.2737748"><ele>106.0</ele><time>2026-04-19T13:20:41.004Z</time></trkpt><trkpt lat="45.4373462" lon="9.2739745"><ele>103.0</ele><time>2026-04-19T13:21:07.004Z</time></trkpt><trkpt lat="45.4359589" lon="9.2738562"><ele>101.0</ele><time>2026-04-19T13:21:33.003Z</time></trkpt><trkpt lat="45.4345694" lon="9.2738847"><ele>104.0</ele><time>2026-04-19T13:22:00.999Z</time></trkpt><trkpt lat="45.433256" lon="9.2744736"><ele>98.0</ele><time>2026-04-19T13:22:26.001Z</time></trkpt><trkpt lat="45.431977" lon="9.2751384"><ele>98.0</ele><time>2026-04-19T13:22:49.993Z</time></trkpt><trkpt lat="45.4314244" lon="9.2769258"><ele>101.0</ele><time>2026-04-19T13:23:18.994Z</time></trkpt><trkpt lat="45.4303068" lon="9.2780534"><ele>100.0</ele><time>2026-04-19T13:23:51.993Z</time></trkpt><trkpt lat="45.4289344" lon="9.278081"><ele>97.0</ele><time>2026-04-19T13:24:15.993Z</time></trkpt><trkpt lat="45.4275621" lon="9.2782357"><ele>95.0</ele><time>2026-04-19T13:24:38.994Z</time></trkpt><trkpt lat="45.4261989" lon="9.2784342"><ele>99.0</ele><time>2026-04-19T13:25:01.993Z</time></trkpt><trkpt lat="45.4272889" lon="9.2796453"><ele>96.0</ele><time>2026-04-19T13:25:42.994Z</time></trkpt><trkpt lat="45.4286508" lon="9.2795097"><ele>97.0</ele><time>2026-04-19T13:26:08.993Z</time></trkpt><trkpt lat="45.4300447" lon="9.2793524"><ele>100.0</ele><time>2026-04-19T13:26:35.993Z</time></trkpt><trkpt lat="45.430937" lon="9.2808033"><ele>97.0</ele><time>2026-04-19T13:27:09.993Z</time></trkpt><trkpt lat="45.4319189" lon="9.2821462"><ele>99.0</ele><time>2026-04-19T13:27:44.993Z</time></trkpt><trkpt lat="45.4332451" lon="9.2826745"><ele>101.0</ele><time>2026-04-19T13:28:18.993Z</time></trkpt><trkpt lat="45.4346052" lon="9.2825217"><ele>104.0</ele><time>2026-04-19T13:28:47.993Z</time></trkpt><trkpt lat="45.4359707" lon="9.2823692"><ele>95.0</ele><time>2026-04-19T13:29:15.994Z</time></trkpt><trkpt lat="45.4372151" lon="9.2814798"><ele>99.0</ele><time>2026-04-19T13:29:44.993Z</time></trkpt><trkpt lat="45.4385616" lon="9.2813473"><ele>98.0</ele><time>2026-04-19T13:30:11.993Z</time></trkpt><trkpt lat="45.4399254" lon="9.281199"><ele>103.0</ele><time>2026-04-19T13:30:39.997Z</time></trkpt><trkpt lat="45.4412805" lon="9.2810799"><ele>103.0</ele><time>2026-04-19T13:31:07.991Z</time></trkpt><trkpt lat="45.4409792" lon="9.2829869"><ele>105.0</ele><time>2026-04-19T13:32:19.992Z</time></trkpt><trkpt lat="45.4410044" lon="9.284911"><ele>104.0</ele><time>2026-04-19T13:33:53.992Z</time></trkpt><trkpt lat="45.4407191" lon="9.2868205"><ele>105.0</ele><time>2026-04-19T13:34:32.991Z</time></trkpt><trkpt lat="45.4420528" lon="9.2872063"><ele>103.0</ele><time>2026-04-19T13:35:07.992Z</time></trkpt><trkpt lat="45.4434155" lon="9.2874446"><ele>106.0</ele><time>2026-04-19T13:35:35.992Z</time></trkpt><trkpt lat="45.4447647" lon="9.2873948"><ele>106.0</ele><time>2026-04-19T13:36:25.991Z</time></trkpt><trkpt lat="45.4461193" lon="9.2875305"><ele>106.0</ele><time>2026-04-19T13:36:52.991Z</time></trkpt><trkpt lat="45.4475101" lon="9.2876698"><ele>104.0</ele><time>2026-04-19T13:37:21.99Z</time></trkpt><trkpt lat="45.4488821" lon="9.2878182"><ele>106.0</ele><time>2026-04-19T13:37:49.991Z</time></trkpt><trkpt lat="45.4502691" lon="9.2876911"><ele>109.0</ele><time>2026-04-19T13:38:17.991Z</time></trkpt><trkpt lat="45.4515691" lon="9.2871165"><ele>109.0</ele><time>2026-04-19T13:38:56.991Z</time></trkpt><trkpt lat="45.4524806" lon="9.2885584"><ele>111.0</ele><time>2026-04-19T13:39:52.991Z</time></trkpt><trkpt lat="45.4523815" lon="9.2905243"><ele>111.0</ele><time>2026-04-19T13:40:30.991Z</time></trkpt><trkpt lat="45.4535955" lon="9.2914467"><ele>109.0</ele><time>2026-04-19T13:40:59.991Z</time></trkpt><trkpt lat="45.4549767" lon="9.2915681"><ele>113.0</ele><time>2026-04-19T13:41:27.991Z</time></trkpt><trkpt lat="45.4563639" lon="9.2913187"><ele>114.0</ele><time>2026-04-19T13:41:55.99Z</time></trkpt><trkpt lat="45.4577172" lon="9.2908979"><ele>117.0</ele><time>2026-04-19T13:42:22.991Z</time></trkpt><trkpt lat="45.4589287" lon="9.2918881"><ele>119.0</ele><time>2026-04-19T13:42:47.992Z</time></trkpt><trkpt lat="45.4603126" lon="9.2921925"><ele>116.0</ele><time>2026-04-19T13:43:12.992Z</time></trkpt><trkpt lat="45.4615911" lon="9.2914792"><ele>117.0</ele><time>2026-04-19T13:43:37.99Z</time></trkpt><trkpt lat="45.4628664" lon="9.2921491"><ele>117.0</ele><time>2026-04-19T13:44:03.991Z</time></trkpt><trkpt lat="45.4642317" lon="9.2924272"><ele>119.0</ele><time>2026-04-19T13:44:34.993Z</time></trkpt><trkpt lat="45.4655895" lon="9.2923797"><ele>120.0</ele><time>2026-04-19T13:45:02.99Z</time></trkpt><trkpt lat="45.466901" lon="9.2928465"><ele>114.0</ele><time>2026-04-19T13:45:29.996Z</time></trkpt><trkpt lat="45.4681101" lon="9.2937141"><ele>109.0</ele><time>2026-04-19T13:45:57.995Z</time></trkpt><trkpt lat="45.4683581" lon="9.2917706"><ele>108.0</ele><time>2026-04-19T13:46:24.992Z</time></trkpt><trkpt lat="45.4697175" lon="9.2920557"><ele>109.0</ele><time>2026-04-19T13:46:58.992Z</time></trkpt><trkpt lat="45.4710492" lon="9.292601"><ele>110.0</ele><time>2026-04-19T13:47:23.992Z</time></trkpt><trkpt lat="45.4721227" lon="9.2938192"><ele>113.0</ele><time>2026-04-19T13:48:07.991Z</time></trkpt><trkpt lat="45.4734724" lon="9.2940481"><ele>118.0</ele><time>2026-04-19T13:48:39.99Z</time></trkpt><trkpt lat="45.4746371" lon="9.2950945"><ele>119.0</ele><time>2026-04-19T13:49:24.993Z</time></trkpt><trkpt lat="45.4759854" lon="9.2953128"><ele>117.0</ele><time>2026-04-19T13:50:43.994Z</time></trkpt><trkpt lat="45.476691" lon="9.2969882"><ele>113.0</ele><time>2026-04-19T13:52:03.992Z</time></trkpt><trkpt lat="45.4768397" lon="9.2988971"><ele>113.0</ele><time>2026-04-19T13:52:30.992Z</time></trkpt><trkpt lat="45.4770908" lon="9.3008033"><ele>112.0</ele><time>2026-04-19T13:53:13.991Z</time></trkpt><trkpt lat="45.4769504" lon="9.3037116"><ele>111.0</ele><time>2026-04-19T13:53:54.992Z</time></trkpt><trkpt lat="45.4755521" lon="9.3038073"><ele>113.0</ele><time>2026-04-19T13:54:20.992Z</time></trkpt><trkpt lat="45.4768946" lon="9.3040976"><ele>115.0</ele><time>2026-04-19T13:55:20.992Z</time></trkpt><trkpt lat="45.4774554" lon="9.305856"><ele>116.0</ele><time>2026-04-19T13:55:52.005Z</time></trkpt><trkpt lat="45.4777217" lon="9.3077804"><ele>121.0</ele><time>2026-04-19T13:56:20.004Z</time></trkpt><trkpt lat="45.4778974" lon="9.3097037"><ele>114.0</ele><time>2026-04-19T13:56:49.004Z</time></trkpt><trkpt lat="45.4777307" lon="9.3116624"><ele>112.0</ele><time>2026-04-19T13:57:17.99Z</time></trkpt><trkpt lat="45.4779044" lon="9.3135662"><ele>113.0</ele><time>2026-04-19T13:57:58.997Z</time></trkpt><trkpt lat="45.4781923" lon="9.3154449"><ele>112.0</ele><time>2026-04-19T13:58:29.995Z</time></trkpt><trkpt lat="45.4780759" lon="9.3174124"><ele>114.0</ele><time>2026-04-19T13:58:59.994Z</time></trkpt><trkpt lat="45.4785642" lon="9.3192011"><ele>114.0</ele><time>2026-04-19T13:59:43.994Z</time></trkpt><trkpt lat="45.4799227" lon="9.3191602"><ele>115.0</ele><time>2026-04-19T14:00:16.991Z</time></trkpt><trkpt lat="45.4805761" lon="9.3208709"><ele>115.0</ele><time>2026-04-19T14:01:14.992Z</time></trkpt></trkseg></trk></gpx>